M I D A S
Marine Information and Data Acquisition System
Tripno 1681 of the Zeeleeuw from 2009-04-24 06:37:32 to 2009-04-24 08:38:40
Back to CruiseResearch ActivitiesStationsMapUnderway DataData graphs

EquipmentUnitsComment
TimeDGPSUTC
LatitudeDGPSDM.mWGS84
LongitudeDGPSDM.mWGS84
TemperatureSBE03/SBE38deg celciusITS90
ConductivitySBE21S/mITS90
SalinitySBE21 Practical Salinity Units
ChlorophylAChelsea fluorimeterg/lCalibrated in Aceton
Missing or incorrect values are displayed as -999
Sea surface data collected by the RV Zeeleeuw from 2009-04-24 06:44:10 to 2009-04-24 11:29:50
                                                                                    Next 1000 lines
Time Latitude Longitude Temperature Conductivity Salinity ChlorophylA
2009-04-24 06:44:20 51°13.661 2°55.957 -999 0.031711 0.177291 -1.035392
2009-04-24 06:44:25 51°13.662 2°55.955 -999 0.032123 0.179622 -1.035392
2009-04-24 06:44:30 51°13.662 2°55.952 -999 0.031403 0.175552 -1.035392
2009-04-24 06:44:35 51°13.664 2°55.947 -999 0.031403 0.175552 -1.035392
2009-04-24 06:44:40 51°13.665 2°55.942 -999 0.032123 0.179628 -1.070216
2009-04-24 06:44:45 51°13.667 2°55.936 -999 0.033049 0.184883 -1.035392
2009-04-24 06:44:50 51°13.669 2°55.93 -999 0.033358 0.186642 -1.035392
2009-04-24 06:44:55 51°13.671 2°55.923 -999 0.033358 0.186649 -1.035392
2009-04-24 06:45:00 51°13.674 2°55.916 -999 0.033975 0.190158 -1.035392
2009-04-24 06:45:05 51°13.676 2°55.909 -999 0.033975 0.190158 -1.035392
2009-04-24 06:45:10 51°13.678 2°55.902 -999 0.033358 0.186656 -1.035392
2009-04-24 06:45:15 51°13.68 2°55.894 -999 0.033049 0.184902 -1.035392
2009-04-24 06:45:20 51°13.682 2°55.886 -999 0.033461 0.187239 -1.035392
2009-04-24 06:45:25 51°13.683 2°55.879 -999 0.033049 0.184906 -1.035392
2009-04-24 06:45:30 51°13.685 2°55.871 -999 0.033461 0.187243 -1.035392
2009-04-24 06:45:35 51°13.686 2°55.864 -999 0.033461 0.187243 -1.035392
2009-04-24 06:45:40 51°13.687 2°55.857 -999 0.033152 0.185492 -1.035392
2009-04-24 06:45:45 51°13.687 2°55.849 -999 0.033255 0.186079 -1.035392
2009-04-24 06:45:50 51°13.688 2°55.842 -999 0.033152 0.185499 -1.035392
2009-04-24 06:45:55 51°13.688 2°55.834 -999 0.032843 0.183749 -1.035392
2009-04-24 06:46:00 51°13.689 2°55.826 -999 0.033667 0.188424 -1.035392
2009-04-24 06:46:05 51°13.689 2°55.819 -999 0.033667 0.188424 -1.035392
2009-04-24 06:46:10 51°13.689 2°55.811 -999 0.033049 0.184925 -1.035392
2009-04-24 06:46:15 51°13.689 2°55.803 -999 0.033461 0.187259 -1.035392
2009-04-24 06:46:20 51°13.69 2°55.796 -999 0.033358 0.186679 -1.035392
2009-04-24 06:46:25 51°13.69 2°55.789 -999 0.033152 0.185515 -1.035392
2009-04-24 06:46:30 51°13.69 2°55.782 -999 0.033461 0.187269 -1.035392
2009-04-24 06:46:35 51°13.69 2°55.775 -999 0.033461 0.187269 -1.035392
2009-04-24 06:46:39 51°13.69 2°55.77 -999 0.033358 0.186689 -1.035392
2009-04-24 06:46:44 51°13.69 2°55.764 -999 0.033564 0.18786 -1.035392
2009-04-24 06:46:49 51°13.689 2°55.759 -999 0.033975 0.190203 -1.035392
2009-04-24 06:46:55 51°13.69 2°55.756 -999 0.03449 0.193139 -1.035392
2009-04-24 06:46:59 51°13.69 2°55.755 -999 0.033769 0.189051 -1.070216
2009-04-24 06:47:04 51°13.691 2°55.754 -999 0.033769 0.189051 -1.070216
2009-04-24 06:47:09 51°13.692 2°55.754 -999 0.034181 0.191395 -1.035392
2009-04-24 06:47:14 51°13.693 2°55.754 -999 0.033872 0.189642 -1.035392
2009-04-24 06:47:19 51°13.694 2°55.755 -999 0.033461 0.187306 -1.035392
2009-04-24 06:47:24 51°13.696 2°55.755 -999 0.033358 0.186719 -1.035392
2009-04-24 06:47:28 51°13.697 2°55.756 -999 0.03274 0.183215 -1.035392
2009-04-24 06:47:33 51°13.698 2°55.756 -999 0.03274 0.183215 -1.035392
2009-04-24 06:47:38 51°13.699 2°55.756 -999 0.032638 0.182632 -1.035392
2009-04-24 06:47:43 51°13.699 2°55.755 -999 0.032432 0.181463 -1.035392
2009-04-24 06:47:48 51°13.699 2°55.754 -999 0.033255 0.186132 -1.035392
2009-04-24 06:47:52 51°13.699 2°55.753 -999 0.033152 0.185549 -1.035392
2009-04-24 06:47:57 51°13.699 2°55.752 -999 0.033358 0.186719 -1.070216
2009-04-24 06:48:03 51°13.7 2°55.751 -999 0.033358 0.186719 -1.070216
2009-04-24 06:48:07 51°13.701 2°55.75 -999 0.035107 0.196673 -1.035392
2009-04-24 06:48:12 51°13.703 2°55.75 -999 0.034901 0.19551 -1.035392
2009-04-24 06:48:17 51°13.705 2°55.748 -999 0.035004 0.196102 -1.035392
2009-04-24 06:48:22 51°13.708 2°55.746 -999 0.03449 0.193177 -1.035392
2009-04-24 06:48:27 51°13.712 2°55.744 -999 0.033564 0.18791 -1.035392
2009-04-24 06:48:31 51°13.714 2°55.742 -999 0.033564 0.18791 -1.035392
2009-04-24 06:48:36 51°13.719 2°55.737 -999 0.034284 0.192007 -1.035392
2009-04-24 06:48:41 51°13.724 2°55.733 -999 0.033461 0.18733 -1.035392
2009-04-24 06:48:46 51°13.729 2°55.727 -999 0.033769 0.189078 -1.035392
2009-04-24 06:48:51 51°13.736 2°55.721 -999 0.03274 0.183235 -1.035392
2009-04-24 06:48:55 51°13.741 2°55.715 -999 0.033461 0.187316 -1.035392
2009-04-24 06:49:01 51°13.75 2°55.707 -999 0.033461 0.187316 -1.035392
2009-04-24 06:49:06 51°13.758 2°55.7 -999 0.033564 0.187904 -1.035392
2009-04-24 06:49:11 51°13.766 2°55.693 -999 0.032535 0.182069 -1.035392
2009-04-24 06:49:16 51°13.774 2°55.685 -999 0.032535 0.182069 -1.035392
2009-04-24 06:49:21 51°13.783 2°55.678 -999 0.032535 0.182072 -1.035392
2009-04-24 06:49:26 51°13.792 2°55.671 -999 0.032226 0.180323 -1.035392
2009-04-24 06:49:31 51°13.801 2°55.664 -999 0.032226 0.180323 -1.035392
2009-04-24 06:49:36 51°13.811 2°55.657 -999 0.033255 0.186165 -1.035392
2009-04-24 06:49:41 51°13.82 2°55.65 -999 0.032638 0.182671 -1.035392
2009-04-24 06:49:46 51°13.83 2°55.643 -999 0.032329 0.180925 -1.035392
2009-04-24 06:49:51 51°13.839 2°55.636 -999 0.033049 0.185015 -1.035392
2009-04-24 06:49:55 51°13.847 2°55.63 -999 0.032329 0.180938 -1.035392
2009-04-24 06:50:01 51°13.858 2°55.622 -999 0.032329 0.180938 -1.035392
2009-04-24 06:50:06 51°13.868 2°55.614 -999 0.03274 0.183274 -1.035392
2009-04-24 06:50:11 51°13.878 2°55.607 -999 0.032638 0.182694 -1.035392
2009-04-24 06:50:16 51°13.888 2°55.599 -999 0.032843 0.183867 -1.035392
2009-04-24 06:50:21 51°13.898 2°55.592 -999 0.032329 0.180951 -1.035392
2009-04-24 06:50:26 51°13.908 2°55.584 -999 0.033049 0.185041 -1.035392
2009-04-24 06:50:31 51°13.917 2°55.575 -999 0.033049 0.185041 -1.035392
2009-04-24 06:50:35 51°13.925 2°55.569 -999 0.032638 0.18271 -1.035392
2009-04-24 06:50:41 51°13.937 2°55.56 -999 0.032638 0.182714 -1.035392
2009-04-24 06:50:46 51°13.947 2°55.552 -999 0.032946 0.184467 -1.070216
2009-04-24 06:50:51 51°13.958 2°55.544 -999 0.032329 0.180967 -1.035392
2009-04-24 06:50:55 51°13.966 2°55.538 -999 0.032638 0.18272 -1.070216
2009-04-24 06:51:00 51°13.976 2°55.531 -999 0.032638 0.18272 -1.070216
2009-04-24 06:51:06 51°13.988 2°55.522 -999 0.032432 0.181557 -1.035392
2009-04-24 06:51:11 51°13.998 2°55.514 -999 0.032329 0.180977 -1.035392
2009-04-24 06:51:16 51°14.008 2°55.508 -999 0.033049 0.185064 -1.035392
2009-04-24 06:51:20 51°14.016 2°55.502 -999 0.032638 0.182733 -1.035392
2009-04-24 06:51:26 51°14.027 2°55.492 -999 0.032535 0.18215 -1.035392
2009-04-24 06:51:31 51°14.037 2°55.484 -999 0.032535 0.18215 -1.035392
2009-04-24 06:51:36 51°14.047 2°55.476 -999 0.032843 0.183907 -1.035392
2009-04-24 06:51:41 51°14.057 2°55.469 -999 0.032432 0.181573 -1.070216
2009-04-24 06:51:46 51°14.068 2°55.461 -999 0.032946 0.184494 -1.035392
2009-04-24 06:51:51 51°14.078 2°55.454 -999 0.032946 0.184497 -1.035392
2009-04-24 06:51:56 51°14.089 2°55.446 -999 0.032535 0.182166 -1.035392
2009-04-24 06:52:01 51°14.099 2°55.438 -999 0.032535 0.182166 -1.035392
2009-04-24 06:52:06 51°14.109 2°55.428 -999 0.03274 0.183336 -1.035392
2009-04-24 06:52:11 51°14.12 2°55.42 -999 0.033049 0.185091 -1.035392
2009-04-24 06:52:16 51°14.13 2°55.411 -999 0.032535 0.182176 -1.035392
2009-04-24 06:52:21 51°14.14 2°55.402 -999 0.032843 0.18393 -1.035392
2009-04-24 06:52:26 51°14.151 2°55.392 -999 0.033152 0.185685 -1.070216
2009-04-24 06:52:31 51°14.161 2°55.383 -999 0.033152 0.185685 -1.070216
2009-04-24 06:52:35 51°14.169 2°55.374 -999 0.03274 0.183356 -1.035392
2009-04-24 06:52:40 51°14.178 2°55.364 -999 0.032638 0.182772 -1.035392
2009-04-24 06:52:46 51°14.19 2°55.351 -999 0.032946 0.18453 -1.035392
2009-04-24 06:52:51 51°14.199 2°55.34 -999 0.033564 0.188035 -1.035392
2009-04-24 06:52:56 51°14.208 2°55.329 -999 0.033564 0.188045 -1.035392
2009-04-24 06:53:01 51°14.218 2°55.317 -999 0.033564 0.188045 -1.035392
2009-04-24 06:53:06 51°14.227 2°55.305 -999 0.032843 0.183956 -1.035392
2009-04-24 06:53:11 51°14.236 2°55.292 -999 0.033152 0.185708 -1.035392
2009-04-24 06:53:16 51°14.245 2°55.28 -999 0.033358 0.186883 -1.035392
2009-04-24 06:53:21 51°14.254 2°55.266 -999 0.033049 0.185127 -1.035392
2009-04-24 06:53:26 51°14.262 2°55.253 -999 0.033358 0.186886 -1.070216
2009-04-24 06:53:31 51°14.271 2°55.239 -999 0.033358 0.186886 -1.070216
2009-04-24 06:53:36 51°14.28 2°55.225 -999 0.03274 0.183382 -1.035392
2009-04-24 06:53:41 51°14.288 2°55.21 -999 0.033152 0.185721 -1.035392
2009-04-24 06:53:46 51°14.297 2°55.195 -999 0.033152 0.185721 -1.035392
2009-04-24 06:53:51 51°14.305 2°55.18 -999 0.033461 0.187477 -1.035392
2009-04-24 06:53:56 51°14.313 2°55.164 -999 0.033358 0.186903 -1.070216
2009-04-24 06:54:00 51°14.319 2°55.152 -999 0.033358 0.186903 -1.070216
2009-04-24 06:54:06 51°14.328 2°55.132 -999 0.032638 0.182812 -1.070216
2009-04-24 06:54:11 51°14.336 2°55.116 -999 0.033769 0.189241 -1.035392
2009-04-24 06:54:16 51°14.344 2°55.1 -999 0.033049 0.185154 -1.035392
2009-04-24 06:54:21 51°14.352 2°55.084 -999 0.032843 0.183986 -1.035392
2009-04-24 06:54:26 51°14.36 2°55.067 -999 0.033872 0.189833 -1.035392
2009-04-24 06:54:31 51°14.367 2°55.05 -999 0.033872 0.189833 -1.035392
2009-04-24 06:54:36 51°14.375 2°55.033 -999 0.033461 0.187497 -1.035392
2009-04-24 06:54:41 51°14.382 2°55.015 -999 0.032843 0.183992 -1.035392
2009-04-24 06:54:46 51°14.389 2°54.997 -999 0.033358 0.18691 -1.035392
2009-04-24 06:54:51 51°14.396 2°54.978 -999 0.033461 0.187497 -1.035392
2009-04-24 06:54:56 51°14.403 2°54.959 -999 0.03449 0.193361 -1.035392
2009-04-24 06:55:00 51°14.408 2°54.944 -999 0.03449 0.193361 -1.035392
2009-04-24 06:55:06 51°14.416 2°54.92 -999 0.035004 0.196307 -1.035392
2009-04-24 06:55:11 51°14.422 2°54.898 -999 0.034901 0.195732 -1.035392
2009-04-24 06:55:16 51°14.426 2°54.876 -999 0.035622 0.199842 -1.035392
2009-04-24 06:55:20 51°14.429 2°54.858 -999 0.034696 0.19456 -1.035392
2009-04-24 06:55:26 51°14.431 2°54.83 -999 0.03449 0.193385 -1.035392
2009-04-24 06:55:31 51°14.432 2°54.805 -999 0.03449 0.193385 -1.035392
2009-04-24 06:55:35 51°14.432 2°54.785 -999 0.033564 0.188112 -1.035392
2009-04-24 06:55:40 51°14.431 2°54.76 -999 0.034284 0.192204 -1.035392
2009-04-24 06:55:46 51°14.429 2°54.73 -999 0.034593 0.193971 -1.035392
2009-04-24 06:55:51 51°14.426 2°54.704 -999 0.034078 0.191054 -1.070216
2009-04-24 06:55:55 51°14.423 2°54.684 -999 0.034799 0.195153 -1.035392
2009-04-24 06:56:01 51°14.417 2°54.653 -999 0.034799 0.195153 -1.035392
2009-04-24 06:56:05 51°14.412 2°54.633 -999 0.033358 0.186957 -1.035392
2009-04-24 06:56:11 51°14.404 2°54.603 -999 0.032226 0.180523 -1.035392
2009-04-24 06:56:16 51°14.397 2°54.578 -999 0.031917 0.178763 -1.035392
2009-04-24 06:56:21 51°14.389 2°54.553 -999 0.03274 0.183425 -1.035392
2009-04-24 06:56:26 51°14.382 2°54.528 -999 0.032123 0.179923 -1.035392
2009-04-24 06:56:31 51°14.375 2°54.502 -999 0.032123 0.179923 -1.035392
2009-04-24 06:56:35 51°14.369 2°54.482 -999 0.032226 0.18051 -1.035392
2009-04-24 06:56:41 51°14.361 2°54.451 -999 0.032123 0.17993 -1.035392
2009-04-24 06:56:46 51°14.353 2°54.426 -999 0.032843 0.184022 -1.035392
2009-04-24 06:56:51 51°14.346 2°54.4 -999 0.032432 0.181693 -1.035392
2009-04-24 06:56:56 51°14.338 2°54.374 -999 0.031917 0.178776 -1.070216
2009-04-24 06:57:01 51°14.331 2°54.348 -999 0.031917 0.178776 -1.070216
2009-04-24 06:57:06 51°14.324 2°54.323 -999 0.03274 0.183451 -1.035392
2009-04-24 06:57:11 51°14.316 2°54.297 -999 0.033667 0.188717 -1.035392
2009-04-24 06:57:15 51°14.31 2°54.276 -999 0.033152 0.185801 -1.035392
2009-04-24 06:57:20 51°14.303 2°54.25 -999 0.032432 0.181719 -1.035392
2009-04-24 06:57:26 51°14.294 2°54.218 -999 0.032638 0.18289 -1.070216
2009-04-24 06:57:31 51°14.286 2°54.192 -999 0.032638 0.18289 -1.070216
2009-04-24 06:57:35 51°14.28 2°54.171 -999 0.032638 0.182897 -1.035392
2009-04-24 06:57:41 51°14.271 2°54.14 -999 0.033975 0.190503 -1.035392
2009-04-24 06:57:46 51°14.264 2°54.114 -999 0.033152 0.185831 -1.035392
2009-04-24 06:57:51 51°14.256 2°54.088 -999 0.033152 0.185834 -1.035392
2009-04-24 06:57:56 51°14.249 2°54.062 -999 0.032843 0.184078 -1.035392
2009-04-24 06:58:01 51°14.241 2°54.036 -999 0.032843 0.184078 -1.035392
2009-04-24 06:58:06 51°14.234 2°54.009 -999 0.032432 0.181745 -1.035392
2009-04-24 06:58:11 51°14.226 2°53.984 -999 0.032329 0.181158 -1.035392
2009-04-24 06:58:15 51°14.219 2°53.963 -999 0.03274 0.183497 -1.035392
2009-04-24 06:58:21 51°14.21 2°53.932 -999 0.032535 0.182329 -1.035392
2009-04-24 06:58:26 51°14.202 2°53.906 -999 0.032638 0.182913 -1.035392
2009-04-24 06:58:31 51°14.193 2°53.88 -999 0.032638 0.182913 -1.035392
2009-04-24 06:58:36 51°14.185 2°53.854 -999 0.032226 0.180581 -1.035392
2009-04-24 06:58:41 51°14.177 2°53.829 -999 0.032329 0.181164 -1.035392
2009-04-24 06:58:46 51°14.168 2°53.803 -999 0.03274 0.183504 -1.070216
2009-04-24 06:58:51 51°14.16 2°53.777 -999 0.032535 0.182342 -1.035392
2009-04-24 06:58:56 51°14.151 2°53.752 -999 0.032226 0.180597 -1.070216
2009-04-24 06:59:01 51°14.142 2°53.726 -999 0.032226 0.180597 -1.070216
2009-04-24 06:59:06 51°14.133 2°53.701 -999 0.032638 0.182936 -1.035392
2009-04-24 06:59:11 51°14.125 2°53.675 -999 0.03202 0.179436 -1.035392
2009-04-24 06:59:15 51°14.118 2°53.655 -999 0.032329 0.181187 -1.035392
2009-04-24 06:59:21 51°14.108 2°53.624 -999 0.032432 0.181774 -1.035392
2009-04-24 06:59:26 51°14.099 2°53.598 -999 0.032535 0.182361 -1.035392
2009-04-24 06:59:31 51°14.091 2°53.572 -999 0.032535 0.182361 -1.035392
2009-04-24 06:59:35 51°14.084 2°53.552 -999 0.032638 0.182946 -1.035392
2009-04-24 06:59:41 51°14.074 2°53.521 -999 0.032329 0.181197 -1.035392
2009-04-24 06:59:46 51°14.066 2°53.495 -999 0.032535 0.182368 -1.035392
2009-04-24 06:59:51 51°14.057 2°53.469 -999 0.032843 0.184124 -1.035392
2009-04-24 06:59:56 51°14.049 2°53.443 -999 0.032638 0.182962 -1.035392
2009-04-24 07:00:01 51°14.04 2°53.417 -999 0.032638 0.182962 -1.035392
2009-04-24 07:00:06 51°14.032 2°53.392 -999 0.032432 0.181794 -1.070216
2009-04-24 07:00:11 51°14.023 2°53.366 -999 0.032638 0.182965 -1.070216
2009-04-24 07:00:16 51°14.015 2°53.34 -999 0.032123 0.180045 -1.035392
2009-04-24 07:00:21 51°14.006 2°53.314 -999 0.032329 0.181216 -1.035392
2009-04-24 07:00:26 51°13.998 2°53.289 -999 0.032123 0.180049 -1.035392
2009-04-24 07:00:31 51°13.989 2°53.263 -999 0.032123 0.180049 -1.035392
2009-04-24 07:00:36 51°13.981 2°53.237 -999 0.032638 0.182975 -1.035392
2009-04-24 07:00:40 51°13.975 2°53.216 -999 0.032226 0.180639 -1.035392
2009-04-24 07:00:46 51°13.965 2°53.185 -999 0.032329 0.181226 -1.035392
2009-04-24 07:00:51 51°13.957 2°53.158 -999 0.032535 0.182397 -1.070216
2009-04-24 07:00:56 51°13.948 2°53.132 -999 0.032329 0.181232 -1.035392
2009-04-24 07:01:00 51°13.942 2°53.112 -999 0.032329 0.181232 -1.035392
2009-04-24 07:01:06 51°13.932 2°53.08 -999 0.03202 0.179484 -1.035392
2009-04-24 07:01:11 51°13.924 2°53.054 -999 0.032226 0.180655 -1.035392
2009-04-24 07:01:16 51°13.915 2°53.028 -999 0.032226 0.180658 -1.035392
2009-04-24 07:01:21 51°13.907 2°53.002 -999 0.032123 0.180077 -1.070216
2009-04-24 07:01:26 51°13.899 2°52.976 -999 0.032432 0.181829 -1.035392
2009-04-24 07:01:31 51°13.891 2°52.95 -999 0.032432 0.181829 -1.035392
2009-04-24 07:01:36 51°13.883 2°52.924 -999 0.032432 0.181833 -1.070216
2009-04-24 07:01:41 51°13.874 2°52.898 -999 0.032638 0.183005 -1.035392
2009-04-24 07:01:46 51°13.866 2°52.871 -999 0.032226 0.180671 -1.035392
2009-04-24 07:01:51 51°13.858 2°52.845 -999 0.032329 0.181258 -1.035392
2009-04-24 07:01:55 51°13.852 2°52.824 -999 0.031917 0.178926 -1.035392
2009-04-24 07:02:00 51°13.844 2°52.798 -999 0.031917 0.178926 -1.035392
2009-04-24 07:02:06 51°13.833 2°52.767 -999 0.032535 0.182433 -1.070216
2009-04-24 07:02:11 51°13.825 2°52.741 -999 0.031814 0.178349 -1.070216
2009-04-24 07:02:15 51°13.818 2°52.721 -999 0.03274 0.183609 -1.035392
2009-04-24 07:02:20 51°13.81 2°52.695 -999 0.032123 0.180106 -1.035392
2009-04-24 07:02:25 51°13.801 2°52.669 -999 0.032226 0.180687 -1.035392
2009-04-24 07:02:31 51°13.79 2°52.638 -999 0.032226 0.180687 -1.035392
2009-04-24 07:02:35 51°13.783 2°52.617 -999 0.03274 0.183615 -1.035392
2009-04-24 07:02:41 51°13.773 2°52.587 -999 0.031917 0.178942 -1.035392
2009-04-24 07:02:45 51°13.766 2°52.566 -999 0.032123 0.180113 -1.035392
2009-04-24 07:02:51 51°13.755 2°52.535 -999 0.032226 0.180697 -1.035392
2009-04-24 07:02:56 51°13.747 2°52.509 -999 0.032329 0.181284 -1.035392
2009-04-24 07:03:01 51°13.738 2°52.484 -999 0.032329 0.181284 -1.035392
2009-04-24 07:03:06 51°13.729 2°52.458 -999 0.032123 0.180119 -1.035392
2009-04-24 07:03:11 51°13.721 2°52.432 -999 0.032226 0.180703 -1.035392
2009-04-24 07:03:16 51°13.712 2°52.407 -999 0.032329 0.181291 -1.035392
2009-04-24 07:03:21 51°13.703 2°52.381 -999 0.031917 0.178958 -1.035392
2009-04-24 07:03:26 51°13.694 2°52.355 -999 0.031917 0.178958 -1.035392
2009-04-24 07:03:31 51°13.686 2°52.329 -999 0.031917 0.178958 -1.035392
2009-04-24 07:03:35 51°13.679 2°52.309 -999 0.032432 0.181885 -1.035392
2009-04-24 07:03:41 51°13.668 2°52.278 -999 0.032843 0.184226 -1.070216
2009-04-24 07:03:46 51°13.659 2°52.252 -999 0.032432 0.181891 -1.035392
2009-04-24 07:03:51 51°13.651 2°52.226 -999 0.032123 0.180142 -1.035392
2009-04-24 07:03:55 51°13.644 2°52.206 -999 0.032535 0.182482 -1.070216
2009-04-24 07:04:01 51°13.633 2°52.175 -999 0.032535 0.182482 -1.070216
2009-04-24 07:04:06 51°13.625 2°52.149 -999 0.031711 0.177809 -1.070216
2009-04-24 07:04:11 51°13.616 2°52.123 -999 0.032226 0.180732 -1.035392
2009-04-24 07:04:16 51°13.607 2°52.097 -999 0.032123 0.180148 -1.035392
2009-04-24 07:04:21 51°13.599 2°52.072 -999 0.032432 0.181904 -1.070216
2009-04-24 07:04:26 51°13.59 2°52.046 -999 0.032226 0.180739 -1.070216
2009-04-24 07:04:31 51°13.581 2°52.02 -999 0.032226 0.180739 -1.070216
2009-04-24 07:04:36 51°13.572 2°51.994 -999 0.032535 0.182495 -1.035392
2009-04-24 07:04:40 51°13.565 2°51.973 -999 0.032123 0.180161 -1.035392
2009-04-24 07:04:46 51°13.555 2°51.942 -999 0.032329 0.181333 -1.070216
2009-04-24 07:04:51 51°13.546 2°51.916 -999 0.031711 0.177828 -1.035392
2009-04-24 07:04:56 51°13.538 2°51.89 -999 0.032329 0.181336 -1.035392
2009-04-24 07:05:00 51°13.531 2°51.87 -999 0.032329 0.181336 -1.035392
2009-04-24 07:05:06 51°13.521 2°51.839 -999 0.032226 0.180755 -1.035392
2009-04-24 07:05:11 51°13.512 2°51.813 -999 0.032226 0.180755 -1.035392
2009-04-24 07:05:16 51°13.504 2°51.787 -999 0.032226 0.180755 -1.035392
2009-04-24 07:05:21 51°13.495 2°51.761 -999 0.032226 0.180758 -1.035392
2009-04-24 07:05:26 51°13.487 2°51.735 -999 0.032432 0.181934 -1.070216
2009-04-24 07:05:31 51°13.478 2°51.708 -999 0.032432 0.181934 -1.070216
2009-04-24 07:05:36 51°13.47 2°51.683 -999 0.031814 0.178428 -1.070216
2009-04-24 07:05:41 51°13.461 2°51.657 -999 0.034387 0.193067 -1.035392
2009-04-24 07:05:46 51°13.452 2°51.632 -999 0.035416 0.19897 -1.035392
2009-04-24 07:05:51 51°13.441 2°51.61 -999 0.033667 0.189002 -1.035392
2009-04-24 07:05:55 51°13.433 2°51.594 -999 0.033769 0.189581 -1.035392
2009-04-24 07:06:01 51°13.419 2°51.574 -999 0.033769 0.189581 -1.035392
2009-04-24 07:06:06 51°13.407 2°51.559 -999 0.034696 0.194861 -1.070216
2009-04-24 07:06:11 51°13.395 2°51.546 -999 0.033769 0.189588 -1.035392
2009-04-24 07:06:15 51°13.385 2°51.537 -999 0.033358 0.187242 -1.035392
2009-04-24 07:06:20 51°13.373 2°51.527 -999 0.033049 0.185479 -1.070216
2009-04-24 07:06:26 51°13.36 2°51.518 -999 0.033255 0.18665 -1.035392
2009-04-24 07:06:31 51°13.349 2°51.512 -999 0.033255 0.18665 -1.035392
2009-04-24 07:06:35 51°13.341 2°51.507 -999 0.033358 0.187232 -1.070216
2009-04-24 07:06:41 51°13.33 2°51.502 -999 0.033358 0.187235 -1.035392
2009-04-24 07:06:46 51°13.321 2°51.498 -999 0.033358 0.187238 -1.035392
2009-04-24 07:06:51 51°13.312 2°51.494 -999 0.033152 0.186071 -1.035392
2009-04-24 07:06:55 51°13.305 2°51.491 -999 0.033152 0.186074 -1.070216
2009-04-24 07:07:01 51°13.296 2°51.488 -999 0.033152 0.186074 -1.070216
2009-04-24 07:07:05 51°13.29 2°51.486 -999 0.033255 0.186663 -1.070216
2009-04-24 07:07:11 51°13.281 2°51.483 -999 0.033049 0.185492 -1.035392
2009-04-24 07:07:16 51°13.274 2°51.481 -999 0.033049 0.185496 -1.035392
2009-04-24 07:07:21 51°13.267 2°51.479 -999 0.033358 0.187255 -1.070216
2009-04-24 07:07:26 51°13.261 2°51.477 -999 0.033255 0.18667 -1.035392
2009-04-24 07:07:31 51°13.254 2°51.476 -999 0.033255 0.18667 -1.035392
2009-04-24 07:07:36 51°13.249 2°51.474 -999 0.033255 0.186673 -1.035392
2009-04-24 07:07:41 51°13.243 2°51.473 -999 0.033358 0.187259 -1.035392
2009-04-24 07:07:46 51°13.237 2°51.472 -999 0.033667 0.189019 -1.035392
2009-04-24 07:07:51 51°13.232 2°51.471 -999 0.033564 0.188433 -1.035392
2009-04-24 07:07:55 51°13.228 2°51.47 -999 0.032843 0.184339 -1.035392
2009-04-24 07:08:01 51°13.222 2°51.468 -999 0.032843 0.184339 -1.035392
2009-04-24 07:08:06 51°13.217 2°51.467 -999 0.033049 0.185509 -1.035392
2009-04-24 07:08:11 51°13.212 2°51.465 -999 0.03274 0.183757 -1.035392
2009-04-24 07:08:16 51°13.207 2°51.464 -999 0.033255 0.186687 -1.035392
2009-04-24 07:08:20 51°13.204 2°51.462 -999 0.033049 0.185519 -1.035392
2009-04-24 07:08:26 51°13.198 2°51.46 -999 0.033152 0.186108 -1.035392
2009-04-24 07:08:31 51°13.194 2°51.458 -999 0.033152 0.186108 -1.035392
2009-04-24 07:08:36 51°13.19 2°51.456 -999 0.033255 0.186697 -1.035392
2009-04-24 07:08:40 51°13.186 2°51.454 -999 0.033255 0.186703 -1.035392
2009-04-24 07:08:46 51°13.182 2°51.452 -999 0.033255 0.186707 -1.035392
2009-04-24 07:08:51 51°13.178 2°51.449 -999 0.033152 0.186128 -1.035392
2009-04-24 07:08:56 51°13.173 2°51.447 -999 0.033358 0.187302 -1.035392
2009-04-24 07:09:00 51°13.17 2°51.444 -999 0.033358 0.187302 -1.035392
2009-04-24 07:09:06 51°13.166 2°51.441 -999 0.033358 0.187306 -1.035392
2009-04-24 07:09:11 51°13.162 2°51.438 -999 0.033358 0.187309 -1.035392
2009-04-24 07:09:16 51°13.158 2°51.435 -999 0.033769 0.189656 -1.070216
2009-04-24 07:09:20 51°13.155 2°51.433 -999 0.033255 0.186727 -1.035392
2009-04-24 07:09:26 51°13.151 2°51.429 -999 0.033872 0.190249 -1.070216
2009-04-24 07:09:31 51°13.148 2°51.426 -999 0.033872 0.190249 -1.070216
2009-04-24 07:09:35 51°13.145 2°51.424 -999 0.033564 0.188491 -1.035392
2009-04-24 07:09:41 51°13.141 2°51.42 -999 0.033255 0.186733 -1.070216
2009-04-24 07:09:46 51°13.137 2°51.417 -999 0.033872 0.190253 -1.035392
2009-04-24 07:09:51 51°13.134 2°51.414 -999 0.033564 0.188501 -1.035392
2009-04-24 07:09:55 51°13.131 2°51.412 -999 0.033152 0.186158 -1.035392
2009-04-24 07:10:01 51°13.128 2°51.408 -999 0.033152 0.186158 -1.035392
2009-04-24 07:10:06 51°13.125 2°51.405 -999 0.033255 0.186744 -1.035392
2009-04-24 07:10:11 51°13.121 2°51.401 -999 0.033255 0.186747 -1.035392
2009-04-24 07:10:16 51°13.118 2°51.398 -999 0.033564 0.188508 -1.035392
2009-04-24 07:10:21 51°13.115 2°51.394 -999 0.033152 0.186165 -1.070216
2009-04-24 07:10:26 51°13.113 2°51.391 -999 0.033769 0.189684 -1.035392
2009-04-24 07:10:31 51°13.11 2°51.387 -999 0.033769 0.189684 -1.035392
2009-04-24 07:10:35 51°13.107 2°51.385 -999 0.033564 0.188515 -1.035392
2009-04-24 07:10:41 51°13.104 2°51.38 -999 0.033564 0.188518 -1.035392
2009-04-24 07:10:46 51°13.101 2°51.377 -999 0.033152 0.186178 -1.035392
2009-04-24 07:10:51 51°13.098 2°51.373 -999 0.033358 0.187353 -1.070216
2009-04-24 07:10:55 51°13.095 2°51.37 -999 0.033358 0.187356 -1.035392
2009-04-24 07:11:00 51°13.092 2°51.366 -999 0.033358 0.187356 -1.035392
2009-04-24 07:11:06 51°13.087 2°51.361 -999 0.033255 0.18677 -1.070216
2009-04-24 07:11:11 51°13.083 2°51.357 -999 0.033769 0.189704 -1.035392
2009-04-24 07:11:15 51°13.08 2°51.353 -999 0.033255 0.186777 -1.035392
2009-04-24 07:11:21 51°13.074 2°51.347 -999 0.033255 0.18678 -1.035392
2009-04-24 07:11:25 51°13.071 2°51.343 -999 0.033358 0.187366 -1.070216
2009-04-24 07:11:31 51°13.065 2°51.336 -999 0.033358 0.187366 -1.070216
2009-04-24 07:11:35 51°13.061 2°51.332 -999 0.033769 0.189714 -1.070216
2009-04-24 07:11:41 51°13.054 2°51.325 -999 0.033152 0.186198 -1.035392
2009-04-24 07:11:46 51°13.049 2°51.318 -999 0.033152 0.186201 -1.070216
2009-04-24 07:11:51 51°13.044 2°51.312 -999 0.033049 0.185619 -1.035392
2009-04-24 07:11:56 51°13.039 2°51.304 -999 0.033255 0.18679 -1.035392
2009-04-24 07:12:01 51°13.034 2°51.297 -999 0.033255 0.18679 -1.035392
2009-04-24 07:12:06 51°13.029 2°51.289 -999 0.033049 0.185626 -1.035392
2009-04-24 07:12:11 51°13.024 2°51.281 -999 0.033255 0.186797 -1.070216
2009-04-24 07:12:16 51°13.019 2°51.273 -999 0.033461 0.187976 -1.070216
2009-04-24 07:12:21 51°13.014 2°51.264 -999 0.033152 0.186218 -1.035392
2009-04-24 07:12:26 51°13.009 2°51.256 -999 0.033461 0.187983 -1.035392
2009-04-24 07:12:31 51°13.004 2°51.247 -999 0.033461 0.187983 -1.035392
2009-04-24 07:12:36 51°12.999 2°51.238 -999 0.033358 0.187397 -1.035392
2009-04-24 07:12:41 51°12.995 2°51.229 -999 0.033872 0.190331 -1.035392
2009-04-24 07:12:46 51°12.991 2°51.22 -999 0.033152 0.186231 -1.035392
2009-04-24 07:12:51 51°12.986 2°51.211 -999 0.033667 0.189165 -1.035392
2009-04-24 07:12:55 51°12.983 2°51.203 -999 0.033769 0.189755 -1.035392
2009-04-24 07:13:01 51°12.978 2°51.192 -999 0.033769 0.189755 -1.035392
2009-04-24 07:13:06 51°12.974 2°51.183 -999 0.033564 0.188582 -1.035392
2009-04-24 07:13:11 51°12.971 2°51.174 -999 0.033152 0.186238 -1.035392
2009-04-24 07:13:16 51°12.967 2°51.165 -999 0.033461 0.188 -1.035392
2009-04-24 07:13:20 51°12.964 2°51.157 -999 0.033461 0.188003 -1.035392
2009-04-24 07:13:26 51°12.96 2°51.146 -999 0.033461 0.188006 -1.035392
2009-04-24 07:13:31 51°12.957 2°51.137 -999 0.033461 0.188006 -1.035392
2009-04-24 07:13:36 51°12.954 2°51.128 -999 0.033255 0.186837 -1.070216
2009-04-24 07:13:40 51°12.951 2°51.12 -999 0.033769 0.189772 -1.070216
2009-04-24 07:13:46 51°12.948 2°51.109 -999 0.033461 0.188017 -1.070216
2009-04-24 07:13:51 51°12.945 2°51.1 -999 0.034181 0.192126 -1.070216
2009-04-24 07:13:56 51°12.942 2°51.091 -999 0.03377 0.189783 -1.035392
2009-04-24 07:14:00 51°12.94 2°51.084 -999 0.03377 0.189783 -1.035392
2009-04-24 07:14:06 51°12.937 2°51.073 -999 0.033872 0.190373 -1.070216
2009-04-24 07:14:11 51°12.934 2°51.064 -999 0.033667 0.189203 -1.035392
2009-04-24 07:14:15 51°12.932 2°51.057 -999 0.033255 0.186861 -1.070216
2009-04-24 07:14:21 51°12.929 2°51.046 -999 0.033667 0.189206 -1.070216
2009-04-24 07:14:26 51°12.926 2°51.038 -999 0.033975 0.19097 -1.035392
2009-04-24 07:14:31 51°12.924 2°51.029 -999 0.033975 0.19097 -1.035392
2009-04-24 07:14:36 51°12.921 2°51.021 -999 0.03377 0.189796 -1.035392
2009-04-24 07:14:41 51°12.919 2°51.012 -999 0.034284 0.192734 -1.035392
2009-04-24 07:14:46 51°12.916 2°51.004 -999 0.034078 0.191563 -1.035392
2009-04-24 07:14:51 51°12.913 2°50.996 -999 0.034078 0.191567 -1.070216
2009-04-24 07:14:56 51°12.911 2°50.988 -999 0.033975 0.190983 -1.035392
2009-04-24 07:15:01 51°12.908 2°50.98 -999 0.033975 0.190983 -1.035392
2009-04-24 07:15:06 51°12.906 2°50.972 -999 0.034387 0.193338 -1.035392
2009-04-24 07:15:11 51°12.903 2°50.964 -999 0.034078 0.191577 -1.035392
2009-04-24 07:15:15 51°12.901 2°50.958 -999 0.033975 0.190997 -1.035392
2009-04-24 07:15:21 51°12.898 2°50.949 -999 0.03377 0.189824 -1.070216
2009-04-24 07:15:26 51°12.896 2°50.941 -999 0.033975 0.190997 -1.070216
2009-04-24 07:15:31 51°12.893 2°50.934 -999 0.033975 0.190997 -1.070216
2009-04-24 07:15:35 51°12.891 2°50.928 -999 0.03377 0.189827 -1.035392
2009-04-24 07:15:40 51°12.888 2°50.92 -999 0.033358 0.187484 -1.070216
2009-04-24 07:15:46 51°12.885 2°50.911 -999 0.033872 0.190417 -1.035392
2009-04-24 07:15:51 51°12.883 2°50.904 -999 0.03377 0.189834 -1.070216
2009-04-24 07:15:55 51°12.881 2°50.898 -999 0.033975 0.191011 -1.035392
2009-04-24 07:16:01 51°12.878 2°50.889 -999 0.033975 0.191011 -1.035392
2009-04-24 07:16:06 51°12.875 2°50.881 -999 0.033667 0.189254 -1.035392
2009-04-24 07:16:11 51°12.873 2°50.874 -999 0.034078 0.191605 -1.070216
2009-04-24 07:16:15 51°12.87 2°50.868 -999 0.033667 0.189261 -1.070216
2009-04-24 07:16:20 51°12.868 2°50.861 -999 0.033975 0.191025 -1.035392
2009-04-24 07:16:26 51°12.865 2°50.852 -999 0.033667 0.189268 -1.035392
2009-04-24 07:16:31 51°12.862 2°50.845 -999 0.033667 0.189268 -1.035392
2009-04-24 07:16:35 51°12.861 2°50.839 -999 0.033358 0.187511 -1.035392
2009-04-24 07:16:41 51°12.858 2°50.83 -999 0.033461 0.188098 -1.070216
2009-04-24 07:16:46 51°12.855 2°50.823 -999 0.033872 0.190448 -1.070216
2009-04-24 07:16:51 51°12.853 2°50.815 -999 0.033461 0.188105 -1.035392
2009-04-24 07:16:56 51°12.85 2°50.808 -999 0.033564 0.188695 -1.035392
2009-04-24 07:17:01 51°12.848 2°50.801 -999 0.033564 0.188695 -1.035392
2009-04-24 07:17:06 51°12.845 2°50.794 -999 0.03377 0.189868 -1.035392
2009-04-24 07:17:11 51°12.843 2°50.786 -999 0.033461 0.188111 -1.035392
2009-04-24 07:17:16 51°12.84 2°50.779 -999 0.033564 0.188701 -1.035392
2009-04-24 07:17:21 51°12.838 2°50.772 -999 0.033358 0.187532 -1.070216
2009-04-24 07:17:26 51°12.836 2°50.764 -999 0.033975 0.191056 -1.035392
2009-04-24 07:17:31 51°12.833 2°50.757 -999 0.033975 0.191056 -1.035392
2009-04-24 07:17:35 51°12.831 2°50.751 -999 0.034078 0.191646 -1.035392
2009-04-24 07:17:40 51°12.829 2°50.744 -999 0.03377 0.189892 -1.035392
2009-04-24 07:17:46 51°12.826 2°50.735 -999 0.033564 0.188718 -1.035392
2009-04-24 07:17:51 51°12.824 2°50.728 -999 0.033564 0.188722 -1.070216
2009-04-24 07:17:55 51°12.822 2°50.722 -999 0.033358 0.187552 -1.035392
2009-04-24 07:18:01 51°12.82 2°50.713 -999 0.033358 0.187552 -1.035392
2009-04-24 07:18:06 51°12.817 2°50.706 -999 0.033975 0.19108 -1.070216
2009-04-24 07:18:11 51°12.815 2°50.698 -999 0.033667 0.189319 -1.070216
2009-04-24 07:18:15 51°12.813 2°50.692 -999 0.033872 0.190496 -1.070216
2009-04-24 07:18:21 51°12.81 2°50.684 -999 0.03377 0.189916 -1.035392
2009-04-24 07:18:26 51°12.808 2°50.676 -999 0.033564 0.188742 -1.070216
2009-04-24 07:18:31 51°12.806 2°50.669 -999 0.033564 0.188742 -1.070216
2009-04-24 07:18:36 51°12.803 2°50.662 -999 0.033667 0.189336 -1.035392
2009-04-24 07:18:41 51°12.801 2°50.655 -999 0.033461 0.188162 -1.035392
2009-04-24 07:18:46 51°12.799 2°50.648 -999 0.033152 0.186406 -1.035392
2009-04-24 07:18:51 51°12.796 2°50.64 -999 0.033667 0.189343 -1.070216
2009-04-24 07:18:55 51°12.795 2°50.634 -999 0.033564 0.188759 -1.070216
2009-04-24 07:19:01 51°12.792 2°50.626 -999 0.033564 0.188759 -1.070216
2009-04-24 07:19:05 51°12.79 2°50.62 -999 0.033564 0.188762 -1.070216
2009-04-24 07:19:11 51°12.787 2°50.612 -999 0.033255 0.187006 -1.070216
2009-04-24 07:19:16 51°12.785 2°50.604 -999 0.033461 0.188182 -1.035392
2009-04-24 07:19:21 51°12.783 2°50.597 -999 0.03377 0.189947 -1.035392
2009-04-24 07:19:26 51°12.78 2°50.59 -999 0.033358 0.187602 -1.035392
2009-04-24 07:19:31 51°12.778 2°50.583 -999 0.033358 0.187602 -1.035392
2009-04-24 07:19:36 51°12.776 2°50.576 -999 0.033358 0.187606 -1.035392
2009-04-24 07:19:41 51°12.774 2°50.569 -999 0.033667 0.18937 -1.070216
2009-04-24 07:19:46 51°12.771 2°50.562 -999 0.033461 0.188199 -1.070216
2009-04-24 07:19:51 51°12.769 2°50.555 -999 0.033255 0.187026 -1.035392
2009-04-24 07:19:55 51°12.768 2°50.549 -999 0.033667 0.18938 -1.035392
2009-04-24 07:20:01 51°12.765 2°50.54 -999 0.033667 0.18938 -1.035392
2009-04-24 07:20:06 51°12.763 2°50.533 -999 0.033872 0.190558 -1.035392
2009-04-24 07:20:11 51°12.76 2°50.526 -999 0.033564 0.1888 -1.035392
2009-04-24 07:20:15 51°12.759 2°50.52 -999 0.033564 0.188803 -1.035392
2009-04-24 07:20:21 51°12.756 2°50.511 -999 0.033564 0.188807 -1.070216
2009-04-24 07:20:26 51°12.754 2°50.504 -999 0.033872 0.190575 -1.035392
2009-04-24 07:20:31 51°12.752 2°50.497 -999 0.033872 0.190575 -1.035392
2009-04-24 07:20:36 51°12.75 2°50.49 -999 0.033358 0.187643 -1.070216
2009-04-24 07:20:41 51°12.748 2°50.483 -999 0.033564 0.18882 -1.035392
2009-04-24 07:20:46 51°12.746 2°50.476 -999 0.033255 0.187063 -1.035392
2009-04-24 07:20:51 51°12.743 2°50.469 -999 0.033872 0.190589 -1.035392
2009-04-24 07:20:56 51°12.741 2°50.461 -999 0.033461 0.188243 -1.035392
2009-04-24 07:21:01 51°12.739 2°50.454 -999 0.033461 0.188243 -1.035392
2009-04-24 07:21:06 51°12.737 2°50.447 -999 0.033872 0.190596 -1.035392
2009-04-24 07:21:11 51°12.735 2°50.44 -999 0.033461 0.18825 -1.035392
2009-04-24 07:21:16 51°12.733 2°50.432 -999 0.033872 0.190603 -1.035392
2009-04-24 07:21:21 51°12.731 2°50.425 -999 0.033667 0.189431 -1.070216
2009-04-24 07:21:26 51°12.729 2°50.418 -999 0.033667 0.189435 -1.070216
2009-04-24 07:21:31 51°12.726 2°50.411 -999 0.033667 0.189435 -1.070216
2009-04-24 07:21:36 51°12.724 2°50.404 -999 0.034181 0.192379 -1.070216
2009-04-24 07:21:40 51°12.723 2°50.398 -999 0.03377 0.190029 -1.070216
2009-04-24 07:21:46 51°12.72 2°50.389 -999 0.033358 0.187684 -1.035392
2009-04-24 07:21:51 51°12.718 2°50.382 -999 0.033975 0.191211 -1.070216
2009-04-24 07:21:56 51°12.716 2°50.375 -999 0.033667 0.189452 -1.070216
2009-04-24 07:22:01 51°12.714 2°50.368 -999 0.033667 0.189452 -1.070216
2009-04-24 07:22:06 51°12.711 2°50.36 -999 0.03377 0.190043 -1.035392
2009-04-24 07:22:11 51°12.709 2°50.353 -999 0.033461 0.188281 -1.035392
2009-04-24 07:22:16 51°12.707 2°50.346 -999 0.033564 0.188871 -1.035392
2009-04-24 07:22:20 51°12.705 2°50.34 -999 0.033461 0.188288 -1.070216
2009-04-24 07:22:26 51°12.703 2°50.332 -999 0.033667 0.189466 -1.035392
2009-04-24 07:22:31 51°12.701 2°50.325 -999 0.033667 0.189466 -1.035392
2009-04-24 07:22:35 51°12.699 2°50.319 -999 0.033872 0.190644 -1.035392
2009-04-24 07:22:40 51°12.697 2°50.312 -999 0.033667 0.189472 -1.035392
2009-04-24 07:22:46 51°12.694 2°50.303 -999 0.033667 0.189476 -1.070216
2009-04-24 07:22:51 51°12.692 2°50.296 -999 0.033358 0.187721 -1.035392
2009-04-24 07:22:55 51°12.69 2°50.29 -999 0.033358 0.187724 -1.035392
2009-04-24 07:23:01 51°12.687 2°50.282 -999 0.033358 0.187724 -1.035392
2009-04-24 07:23:06 51°12.685 2°50.274 -999 0.033564 0.188902 -1.035392
2009-04-24 07:23:11 51°12.683 2°50.267 -999 0.033667 0.189493 -1.070216
2009-04-24 07:23:16 51°12.681 2°50.26 -999 0.033667 0.189496 -1.035392
2009-04-24 07:23:21 51°12.679 2°50.253 -999 0.033255 0.18715 -1.070216
2009-04-24 07:23:26 51°12.676 2°50.246 -999 0.03377 0.190091 -1.070216
2009-04-24 07:23:31 51°12.674 2°50.238 -999 0.03377 0.190091 -1.070216
2009-04-24 07:23:35 51°12.672 2°50.233 -999 0.033667 0.189507 -1.070216
2009-04-24 07:23:41 51°12.67 2°50.224 -999 0.03377 0.190098 -1.035392
2009-04-24 07:23:46 51°12.667 2°50.217 -999 0.033667 0.189513 -1.070216
2009-04-24 07:23:51 51°12.665 2°50.21 -999 0.034078 0.191868 -1.070216
2009-04-24 07:23:55 51°12.663 2°50.204 -999 0.033872 0.190699 -1.035392
2009-04-24 07:24:01 51°12.661 2°50.195 -999 0.033872 0.190699 -1.035392
2009-04-24 07:24:06 51°12.659 2°50.188 -999 0.033975 0.19129 -1.070216
2009-04-24 07:24:11 51°12.656 2°50.18 -999 0.033975 0.191294 -1.035392
2009-04-24 07:24:15 51°12.655 2°50.175 -999 0.033667 0.189534 -1.035392
2009-04-24 07:24:21 51°12.652 2°50.166 -999 0.033667 0.189537 -1.035392
2009-04-24 07:24:26 51°12.65 2°50.159 -999 0.033564 0.18895 -1.070216
2009-04-24 07:24:31 51°12.648 2°50.151 -999 0.033564 0.18895 -1.070216
2009-04-24 07:24:35 51°12.646 2°50.145 -999 0.033461 0.188362 -1.035392
2009-04-24 07:24:40 51°12.643 2°50.138 -999 0.033358 0.187778 -1.035392
2009-04-24 07:24:46 51°12.641 2°50.13 -999 0.033872 0.19072 -1.070216
2009-04-24 07:24:51 51°12.639 2°50.122 -999 0.033667 0.189548 -1.035392
2009-04-24 07:24:55 51°12.637 2°50.116 -999 0.033564 0.188963 -1.035392
2009-04-24 07:25:00 51°12.635 2°50.109 -999 0.033564 0.188963 -1.035392
2009-04-24 07:25:06 51°12.632 2°50.1 -999 0.033667 0.189558 -1.035392
2009-04-24 07:25:11 51°12.63 2°50.093 -999 0.034078 0.191913 -1.070216
2009-04-24 07:25:15 51°12.628 2°50.087 -999 0.033667 0.189568 -1.070216
2009-04-24 07:25:21 51°12.626 2°50.079 -999 0.033358 0.187805 -1.070216
2009-04-24 07:25:25 51°12.624 2°50.073 -999 0.034387 0.193691 -1.070216
2009-04-24 07:25:31 51°12.621 2°50.064 -999 0.034387 0.193691 -1.070216
2009-04-24 07:25:36 51°12.619 2°50.057 -999 0.033872 0.190754 -1.035392
2009-04-24 07:25:41 51°12.617 2°50.049 -999 0.033461 0.188406 -1.070216
2009-04-24 07:25:46 51°12.615 2°50.042 -999 0.03377 0.19017 -1.035392
2009-04-24 07:25:51 51°12.612 2°50.035 -999 0.033358 0.187822 -1.070216
2009-04-24 07:25:56 51°12.61 2°50.028 -999 0.033872 0.190761 -1.035392
2009-04-24 07:26:01 51°12.608 2°50.02 -999 0.033872 0.190761 -1.035392
2009-04-24 07:26:06 51°12.606 2°50.013 -999 0.033564 0.189004 -1.070216
2009-04-24 07:26:11 51°12.604 2°50.006 -999 0.033461 0.188417 -1.070216
2009-04-24 07:26:16 51°12.601 2°49.999 -999 0.034078 0.191948 -1.070216
2009-04-24 07:26:21 51°12.599 2°49.992 -999 0.034284 0.193131 -1.035392
2009-04-24 07:26:26 51°12.597 2°49.984 -999 0.033564 0.189021 -1.035392
2009-04-24 07:26:31 51°12.595 2°49.977 -999 0.033564 0.189021 -1.035392
2009-04-24 07:26:35 51°12.593 2°49.971 -999 0.03377 0.190197 -1.070216
2009-04-24 07:26:41 51°12.591 2°49.962 -999 0.033358 0.187853 -1.070216
2009-04-24 07:26:46 51°12.589 2°49.955 -999 0.033564 0.189028 -1.035392
2009-04-24 07:26:51 51°12.587 2°49.947 -999 0.03377 0.190207 -1.035392
2009-04-24 07:26:56 51°12.585 2°49.94 -999 0.033564 0.189035 -1.070216
2009-04-24 07:27:01 51°12.583 2°49.933 -999 0.033564 0.189035 -1.070216
2009-04-24 07:27:06 51°12.58 2°49.926 -999 0.033564 0.189035 -1.035392
2009-04-24 07:27:11 51°12.579 2°49.918 -999 0.033667 0.189626 -1.070216
2009-04-24 07:27:16 51°12.576 2°49.911 -999 0.033564 0.189042 -1.035392
2009-04-24 07:27:21 51°12.574 2°49.903 -999 0.033564 0.189045 -1.035392
2009-04-24 07:27:26 51°12.572 2°49.896 -999 0.03377 0.190228 -1.070216
2009-04-24 07:27:31 51°12.57 2°49.889 -999 0.03377 0.190228 -1.070216
2009-04-24 07:27:36 51°12.568 2°49.881 -999 0.033564 0.189056 -1.035392
2009-04-24 07:27:40 51°12.567 2°49.875 -999 0.033564 0.189059 -1.070216
2009-04-24 07:27:46 51°12.564 2°49.866 -999 0.033667 0.18965 -1.035392
2009-04-24 07:27:51 51°12.562 2°49.859 -999 0.033667 0.189654 -1.070216
2009-04-24 07:27:56 51°12.56 2°49.852 -999 0.033564 0.189069 -1.035392
2009-04-24 07:28:00 51°12.559 2°49.846 -999 0.033564 0.189069 -1.035392
2009-04-24 07:28:06 51°12.557 2°49.837 -999 0.033255 0.187309 -1.035392
2009-04-24 07:28:11 51°12.555 2°49.83 -999 0.033975 0.191432 -1.035392
2009-04-24 07:28:16 51°12.553 2°49.823 -999 0.034078 0.192027 -1.070216
2009-04-24 07:28:21 51°12.551 2°49.815 -999 0.033461 0.188498 -1.070216
2009-04-24 07:28:26 51°12.549 2°49.808 -999 0.033872 0.190854 -1.035392
2009-04-24 07:28:31 51°12.547 2°49.801 -999 0.033872 0.190854 -1.035392
2009-04-24 07:28:36 51°12.545 2°49.793 -999 0.03377 0.190269 -1.070216
2009-04-24 07:28:41 51°12.543 2°49.786 -999 0.033461 0.188505 -1.070216
2009-04-24 07:28:46 51°12.541 2°49.779 -999 0.033667 0.189685 -1.070216
2009-04-24 07:28:51 51°12.539 2°49.771 -999 0.033667 0.189685 -1.070216
2009-04-24 07:28:55 51°12.537 2°49.766 -999 0.033872 0.190864 -1.070216
2009-04-24 07:29:01 51°12.535 2°49.757 -999 0.033872 0.190864 -1.070216
2009-04-24 07:29:06 51°12.533 2°49.75 -999 0.033461 0.188519 -1.035392
2009-04-24 07:29:11 51°12.531 2°49.742 -999 0.033975 0.191463 -1.070216
2009-04-24 07:29:15 51°12.529 2°49.737 -999 0.03377 0.19029 -1.070216
2009-04-24 07:29:20 51°12.527 2°49.729 -999 0.033461 0.188529 -1.070216
2009-04-24 07:29:26 51°12.525 2°49.721 -999 0.033358 0.187944 -1.070216
2009-04-24 07:29:31 51°12.523 2°49.713 -999 0.033358 0.187944 -1.070216
2009-04-24 07:29:35 51°12.521 2°49.708 -999 0.034078 0.192066 -1.070216
2009-04-24 07:29:40 51°12.519 2°49.7 -999 0.033461 0.188539 -1.035392
2009-04-24 07:29:46 51°12.517 2°49.692 -999 0.033667 0.189719 -1.070216
2009-04-24 07:29:51 51°12.515 2°49.684 -999 0.033975 0.191487 -1.070216
2009-04-24 07:29:55 51°12.514 2°49.678 -999 0.03377 0.190314 -1.035392
2009-04-24 07:30:01 51°12.511 2°49.67 -999 0.03377 0.190314 -1.035392
2009-04-24 07:30:06 51°12.509 2°49.662 -999 0.033564 0.189141 -1.070216
2009-04-24 07:30:11 51°12.507 2°49.655 -999 0.033461 0.188556 -1.070216
2009-04-24 07:30:16 51°12.505 2°49.648 -999 0.033667 0.189736 -1.035392
2009-04-24 07:30:21 51°12.503 2°49.641 -999 0.033872 0.190916 -1.035392
2009-04-24 07:30:26 51°12.501 2°49.633 -999 0.033872 0.19092 -1.035392
2009-04-24 07:30:31 51°12.499 2°49.626 -999 0.033872 0.19092 -1.035392
2009-04-24 07:30:36 51°12.497 2°49.619 -999 0.033564 0.189158 -1.070216
2009-04-24 07:30:41 51°12.495 2°49.611 -999 0.033667 0.18975 -1.070216
2009-04-24 07:30:46 51°12.493 2°49.604 -999 0.034078 0.192107 -1.070216
2009-04-24 07:30:51 51°12.492 2°49.597 -999 0.03377 0.190345 -1.035392
2009-04-24 07:30:55 51°12.49 2°49.591 -999 0.034078 0.192118 -1.070216
2009-04-24 07:31:01 51°12.488 2°49.582 -999 0.034078 0.192118 -1.070216
2009-04-24 07:31:06 51°12.486 2°49.575 -999 0.03377 0.190352 -1.035392
2009-04-24 07:31:11 51°12.484 2°49.568 -999 0.033975 0.191532 -1.070216
2009-04-24 07:31:15 51°12.483 2°49.562 -999 0.033975 0.191536 -1.035392
2009-04-24 07:31:21 51°12.48 2°49.554 -999 0.033872 0.190951 -1.035392
2009-04-24 07:31:26 51°12.478 2°49.546 -999 0.033975 0.191539 -1.035392
2009-04-24 07:31:31 51°12.476 2°49.539 -999 0.033975 0.191539 -1.035392
2009-04-24 07:31:35 51°12.474 2°49.534 -999 0.033667 0.189777 -1.070216
2009-04-24 07:31:41 51°12.472 2°49.525 -999 0.033872 0.190958 -1.070216
2009-04-24 07:31:46 51°12.47 2°49.518 -999 0.033975 0.191553 -1.070216
2009-04-24 07:31:51 51°12.468 2°49.511 -999 0.033872 0.190968 -1.070216
2009-04-24 07:31:55 51°12.467 2°49.505 -999 0.033667 0.189791 -1.070216
2009-04-24 07:32:01 51°12.465 2°49.497 -999 0.033667 0.189791 -1.070216
2009-04-24 07:32:06 51°12.463 2°49.489 -999 0.03377 0.190383 -1.070216
2009-04-24 07:32:11 51°12.461 2°49.482 -999 0.033667 0.189801 -1.070216
2009-04-24 07:32:16 51°12.459 2°49.475 -999 0.033667 0.189805 -1.070216
2009-04-24 07:32:21 51°12.457 2°49.468 -999 0.033358 0.188043 -1.070216
2009-04-24 07:32:26 51°12.455 2°49.461 -999 0.034078 0.192166 -1.070216
2009-04-24 07:32:31 51°12.453 2°49.454 -999 0.034078 0.192166 -1.070216
2009-04-24 07:32:36 51°12.451 2°49.447 -999 0.033872 0.190992 -1.035392
2009-04-24 07:32:41 51°12.449 2°49.44 -999 0.033872 0.190999 -1.070216
2009-04-24 07:32:46 51°12.447 2°49.433 -999 0.033564 0.189233 -1.035392
2009-04-24 07:32:51 51°12.446 2°49.426 -999 0.03377 0.190414 -1.070216
2009-04-24 07:32:56 51°12.444 2°49.419 -999 0.033975 0.191598 -1.035392
2009-04-24 07:33:01 51°12.442 2°49.412 -999 0.033975 0.191598 -1.035392
2009-04-24 07:33:06 51°12.44 2°49.405 -999 0.033564 0.189243 -1.070216
2009-04-24 07:33:11 51°12.438 2°49.398 -999 0.033667 0.189835 -1.035392
2009-04-24 07:33:15 51°12.436 2°49.392 -999 0.034284 0.193376 -1.070216
2009-04-24 07:33:21 51°12.434 2°49.384 -999 0.033667 0.189846 -1.070216
2009-04-24 07:33:26 51°12.432 2°49.377 -999 0.033872 0.191027 -1.070216
2009-04-24 07:33:31 51°12.43 2°49.37 -999 0.033872 0.191027 -1.070216
2009-04-24 07:33:36 51°12.428 2°49.362 -999 0.033564 0.189264 -1.035392
2009-04-24 07:33:41 51°12.426 2°49.356 -999 0.034078 0.192212 -1.070216
2009-04-24 07:33:46 51°12.424 2°49.349 -999 0.03377 0.190448 -1.070216
2009-04-24 07:33:51 51°12.422 2°49.342 -999 0.033975 0.191626 -1.035392
2009-04-24 07:33:56 51°12.421 2°49.335 -999 0.033872 0.191044 -1.070216
2009-04-24 07:34:00 51°12.419 2°49.329 -999 0.033872 0.191044 -1.070216
2009-04-24 07:34:06 51°12.417 2°49.321 -999 0.034284 0.1934 -1.070216
2009-04-24 07:34:11 51°12.415 2°49.314 -999 0.033667 0.18987 -1.070216
2009-04-24 07:34:16 51°12.413 2°49.307 -999 0.034078 0.192229 -1.070216
2009-04-24 07:34:20 51°12.411 2°49.301 -999 0.034078 0.192233 -1.070216
2009-04-24 07:34:26 51°12.409 2°49.293 -999 0.033975 0.191647 -1.070216
2009-04-24 07:34:31 51°12.407 2°49.286 -999 0.033975 0.191647 -1.070216
2009-04-24 07:34:36 51°12.405 2°49.279 -999 0.033667 0.189884 -1.070216
2009-04-24 07:34:41 51°12.403 2°49.272 -999 0.03377 0.190476 -1.070216
2009-04-24 07:34:46 51°12.402 2°49.265 -999 0.033872 0.191068 -1.070216
2009-04-24 07:34:51 51°12.4 2°49.258 -999 0.03377 0.190479 -1.035392
2009-04-24 07:34:55 51°12.398 2°49.252 -999 0.034078 0.192253 -1.070216
2009-04-24 07:35:01 51°12.396 2°49.244 -999 0.034078 0.192253 -1.070216
2009-04-24 07:35:06 51°12.394 2°49.237 -999 0.033872 0.191079 -1.035392
2009-04-24 07:35:11 51°12.392 2°49.23 -999 0.034181 0.19285 -1.070216
2009-04-24 07:35:16 51°12.39 2°49.223 -999 0.033975 0.191675 -1.070216
2009-04-24 07:35:21 51°12.388 2°49.215 -999 0.034078 0.192271 -1.070216
2009-04-24 07:35:26 51°12.387 2°49.209 -999 0.03377 0.190503 -1.070216
2009-04-24 07:35:31 51°12.385 2°49.202 -999 0.03377 0.190503 -1.070216
2009-04-24 07:35:35 51°12.383 2°49.196 -999 0.033872 0.191096 -1.070216
2009-04-24 07:35:41 51°12.381 2°49.187 -999 0.033564 0.189333 -1.070216
2009-04-24 07:35:46 51°12.379 2°49.18 -999 0.03377 0.190514 -1.035392
2009-04-24 07:35:51 51°12.377 2°49.173 -999 0.033667 0.189925 -1.070216
2009-04-24 07:35:55 51°12.376 2°49.168 -999 0.033872 0.191106 -1.035392
2009-04-24 07:36:01 51°12.374 2°49.159 -999 0.033872 0.191106 -1.035392
2009-04-24 07:36:06 51°12.372 2°49.152 -999 0.033461 0.188754 -1.070216
2009-04-24 07:36:11 51°12.37 2°49.145 -999 0.033667 0.189935 -1.070216
2009-04-24 07:36:16 51°12.368 2°49.138 -999 0.03377 0.190531 -1.070216
2009-04-24 07:36:21 51°12.366 2°49.131 -999 0.03377 0.190535 -1.070216
2009-04-24 07:36:26 51°12.364 2°49.124 -999 0.033872 0.191127 -1.035392
2009-04-24 07:36:31 51°12.363 2°49.117 -999 0.033872 0.191127 -1.035392
2009-04-24 07:36:36 51°12.361 2°49.11 -999 0.03377 0.190541 -1.070216
2009-04-24 07:36:41 51°12.359 2°49.103 -999 0.033667 0.189956 -1.070216
2009-04-24 07:36:46 51°12.357 2°49.096 -999 0.03377 0.190548 -1.035392
2009-04-24 07:36:51 51°12.355 2°49.089 -999 0.033872 0.191141 -1.070216
2009-04-24 07:36:56 51°12.354 2°49.082 -999 0.033872 0.191144 -1.035392
2009-04-24 07:37:01 51°12.352 2°49.075 -999 0.033872 0.191144 -1.035392
2009-04-24 07:37:06 51°12.35 2°49.068 -999 0.03377 0.190559 -1.070216
2009-04-24 07:37:11 51°12.348 2°49.061 -999 0.033872 0.191151 -1.035392
2009-04-24 07:37:16 51°12.347 2°49.054 -999 0.033564 0.189387 -1.035392
2009-04-24 07:37:21 51°12.345 2°49.047 -999 0.033872 0.191158 -1.070216
2009-04-24 07:37:26 51°12.343 2°49.04 -999 0.033667 0.189983 -1.070216
2009-04-24 07:37:31 51°12.342 2°49.033 -999 0.033667 0.189983 -1.070216
2009-04-24 07:37:36 51°12.34 2°49.026 -999 0.033872 0.191165 -1.070216
2009-04-24 07:37:40 51°12.338 2°49.021 -999 0.033975 0.191758 -1.035392
2009-04-24 07:37:46 51°12.336 2°49.013 -999 0.033564 0.189404 -1.070216
2009-04-24 07:37:51 51°12.335 2°49.006 -999 0.03377 0.190586 -1.070216
2009-04-24 07:37:56 51°12.333 2°48.999 -999 0.033461 0.188822 -1.035392
2009-04-24 07:38:00 51°12.331 2°48.993 -999 0.033461 0.188822 -1.035392
2009-04-24 07:38:06 51°12.329 2°48.985 -999 0.033872 0.191183 -1.035392
2009-04-24 07:38:11 51°12.327 2°48.978 -999 0.03377 0.190597 -1.070216
2009-04-24 07:38:16 51°12.326 2°48.971 -999 0.033975 0.191779 -1.070216
2009-04-24 07:38:20 51°12.324 2°48.965 -999 0.033872 0.191193 -1.035392
2009-04-24 07:38:26 51°12.322 2°48.957 -999 0.033564 0.189429 -1.070216
2009-04-24 07:38:31 51°12.321 2°48.95 -999 0.033564 0.189429 -1.070216
2009-04-24 07:38:36 51°12.319 2°48.943 -999 0.033461 0.188843 -1.070216
2009-04-24 07:38:40 51°12.317 2°48.938 -999 0.033667 0.190021 -1.070216
2009-04-24 07:38:46 51°12.315 2°48.93 -999 0.033564 0.189435 -1.070216
2009-04-24 07:38:51 51°12.313 2°48.923 -999 0.03377 0.190617 -1.035392
2009-04-24 07:38:55 51°12.312 2°48.918 -999 0.03377 0.190621 -1.035392
2009-04-24 07:39:01 51°12.31 2°48.909 -999 0.03377 0.190621 -1.035392
2009-04-24 07:39:06 51°12.308 2°48.902 -999 0.033667 0.190035 -1.035392
2009-04-24 07:39:11 51°12.306 2°48.896 -999 0.033564 0.189449 -1.070216
2009-04-24 07:39:16 51°12.305 2°48.889 -999 0.033872 0.191221 -1.035392
2009-04-24 07:39:21 51°12.303 2°48.882 -999 0.033872 0.191224 -1.070216
2009-04-24 07:39:26 51°12.301 2°48.875 -999 0.033461 0.18887 -1.070216
2009-04-24 07:39:31 51°12.3 2°48.869 -999 0.033461 0.18887 -1.070216
2009-04-24 07:39:36 51°12.298 2°48.862 -999 0.033872 0.191231 -1.070216
2009-04-24 07:39:41 51°12.296 2°48.855 -999 0.031403 0.177103 -1.070216
2009-04-24 07:39:46 51°12.295 2°48.849 -999 0.031814 0.179433 -1.035392
2009-04-24 07:39:51 51°12.293 2°48.842 -999 0.034799 0.196523 -1.035392
2009-04-24 07:39:56 51°12.291 2°48.835 -999 0.035107 0.19833 -1.070216
2009-04-24 07:40:01 51°12.29 2°48.829 -999 0.035107 0.19833 -1.070216
2009-04-24 07:40:06 51°12.288 2°48.822 -999 0.037165 0.210189 -1.035392
2009-04-24 07:40:11 51°12.287 2°48.815 -999 0.035931 0.203092 -1.070216
2009-04-24 07:40:15 51°12.285 2°48.81 -999 0.035931 0.203085 -1.070216
2009-04-24 07:40:21 51°12.284 2°48.802 -999 0.035313 0.199534 -1.035392
2009-04-24 07:40:26 51°12.282 2°48.795 -999 0.034696 0.195979 -1.035392
2009-04-24 07:40:31 51°12.28 2°48.789 -999 0.034696 0.195979 -1.035392
2009-04-24 07:40:36 51°12.279 2°48.782 -999 0.035622 0.2013 -1.035392
2009-04-24 07:40:41 51°12.277 2°48.776 -999 0.035931 0.203073 -1.035392
2009-04-24 07:40:46 51°12.276 2°48.769 -999 0.036033 0.203676 -1.035392
2009-04-24 07:40:51 51°12.274 2°48.763 -999 0.035828 0.202497 -1.035392
2009-04-24 07:40:56 51°12.273 2°48.756 -999 0.035519 0.200727 -1.070216
2009-04-24 07:41:01 51°12.271 2°48.75 -999 0.035519 0.200727 -1.070216
2009-04-24 07:41:06 51°12.269 2°48.743 -999 0.035519 0.20073 -1.070216
2009-04-24 07:41:11 51°12.268 2°48.736 -999 0.03521 0.198954 -1.035392
2009-04-24 07:41:16 51°12.266 2°48.729 -999 0.035519 0.20073 -1.035392
2009-04-24 07:41:21 51°12.265 2°48.723 -999 0.035313 0.199548 -1.035392
2009-04-24 07:41:26 51°12.263 2°48.716 -999 0.035416 0.200143 -1.035392
2009-04-24 07:41:31 51°12.262 2°48.71 -999 0.035416 0.200143 -1.035392
2009-04-24 07:41:36 51°12.261 2°48.703 -999 0.035004 0.197786 -1.070216
2009-04-24 07:41:40 51°12.259 2°48.698 -999 0.034799 0.196605 -1.035392
2009-04-24 07:41:46 51°12.258 2°48.69 -999 0.034593 0.195428 -1.070216
2009-04-24 07:41:51 51°12.257 2°48.684 -999 0.033358 0.188346 -1.035392
2009-04-24 07:41:56 51°12.255 2°48.677 -999 0.033667 0.190114 -1.070216
2009-04-24 07:42:00 51°12.254 2°48.672 -999 0.033667 0.190114 -1.070216
2009-04-24 07:42:06 51°12.252 2°48.664 -999 0.034387 0.194247 -1.035392
2009-04-24 07:42:11 51°12.251 2°48.657 -999 0.03377 0.190707 -1.070216
2009-04-24 07:42:16 51°12.25 2°48.651 -999 0.03377 0.190714 -1.070216
2009-04-24 07:42:21 51°12.249 2°48.644 -999 0.032946 0.186003 -1.035392
2009-04-24 07:42:26 51°12.247 2°48.637 -999 0.032843 0.185417 -1.035392
2009-04-24 07:42:31 51°12.246 2°48.63 -999 0.032843 0.185417 -1.035392
2009-04-24 07:42:35 51°12.245 2°48.625 -999 0.032638 0.18424 -1.035392
2009-04-24 07:42:41 51°12.244 2°48.617 -999 0.033152 0.187191 -1.035392
2009-04-24 07:42:46 51°12.243 2°48.611 -999 0.033564 0.189556 -1.070216
2009-04-24 07:42:51 51°12.241 2°48.605 -999 0.033255 0.187794 -1.035392
2009-04-24 07:42:55 51°12.24 2°48.6 -999 0.033872 0.191339 -1.035392
2009-04-24 07:43:01 51°12.239 2°48.593 -999 0.033872 0.191339 -1.035392
2009-04-24 07:43:06 51°12.238 2°48.587 -999 0.034078 0.192522 -1.070216
2009-04-24 07:43:11 51°12.236 2°48.581 -999 0.033152 0.187218 -1.070216
2009-04-24 07:43:15 51°12.235 2°48.576 -999 0.032843 0.185447 -1.070216
2009-04-24 07:43:21 51°12.234 2°48.569 -999 0.032638 0.18427 -1.070216
2009-04-24 07:43:25 51°12.233 2°48.565 -999 0.032946 0.18604 -1.070216
2009-04-24 07:43:31 51°12.231 2°48.558 -999 0.032946 0.18604 -1.070216
2009-04-24 07:43:36 51°12.23 2°48.553 -999 0.032432 0.183099 -1.035392
2009-04-24 07:43:41 51°12.229 2°48.548 -999 0.032946 0.186047 -1.070216
2009-04-24 07:43:46 51°12.227 2°48.542 -999 0.033564 0.18959 -1.035392
2009-04-24 07:43:51 51°12.226 2°48.537 -999 0.033255 0.187825 -1.035392
2009-04-24 07:43:56 51°12.225 2°48.532 -999 0.033667 0.19019 -1.070216
2009-04-24 07:44:01 51°12.223 2°48.527 -999 0.033667 0.19019 -1.070216
2009-04-24 07:44:06 51°12.222 2°48.522 -999 0.034799 0.196698 -1.035392
2009-04-24 07:44:11 51°12.221 2°48.517 -999 0.035416 0.200252 -1.070216
2009-04-24 07:44:16 51°12.219 2°48.512 -999 0.035828 0.202634 -1.035392
2009-04-24 07:44:21 51°12.218 2°48.508 -999 0.035622 0.201457 -1.070216
2009-04-24 07:44:26 51°12.217 2°48.503 -999 0.034902 0.197314 -1.070216
2009-04-24 07:44:31 51°12.215 2°48.499 -999 0.034902 0.197314 -1.070216
2009-04-24 07:44:35 51°12.214 2°48.495 -999 0.036033 0.203829 -1.070216
2009-04-24 07:44:41 51°12.213 2°48.489 -999 0.036033 0.203836 -1.035392
2009-04-24 07:44:46 51°12.211 2°48.485 -999 0.035622 0.201461 -1.035392
2009-04-24 07:44:51 51°12.21 2°48.481 -999 0.035622 0.201461 -1.070216
2009-04-24 07:44:56 51°12.209 2°48.476 -999 0.036033 0.203832 -1.035392
2009-04-24 07:45:01 51°12.208 2°48.472 -999 0.036033 0.203832 -1.035392
2009-04-24 07:45:06 51°12.207 2°48.468 -999 0.036342 0.205616 -1.070216
2009-04-24 07:45:11 51°12.205 2°48.464 -999 0.036754 0.20799 -1.035392
2009-04-24 07:45:16 51°12.204 2°48.459 -999 0.03696 0.209187 -1.070216
2009-04-24 07:45:21 51°12.203 2°48.455 -999 0.036754 0.208002 -1.070216
2009-04-24 07:45:26 51°12.201 2°48.451 -999 0.036239 0.205035 -1.035392
2009-04-24 07:45:31 51°12.2 2°48.446 -999 0.036239 0.205035 -1.035392
2009-04-24 07:45:36 51°12.198 2°48.441 -999 0.035313 0.199705 -1.070216
2009-04-24 07:45:40 51°12.196 2°48.437 -999 0.036033 0.203847 -1.035392
2009-04-24 07:45:46 51°12.194 2°48.432 -999 0.035622 0.201483 -1.035392
2009-04-24 07:45:51 51°12.192 2°48.427 -999 0.035416 0.2003 -1.070216
2009-04-24 07:45:56 51°12.189 2°48.423 -999 0.036342 0.205635 -1.035392
2009-04-24 07:46:01 51°12.187 2°48.418 -999 0.036342 0.205635 -1.035392
2009-04-24 07:46:06 51°12.184 2°48.414 -999 0.035416 0.200314 -1.035392
2009-04-24 07:46:11 51°12.181 2°48.409 -999 0.036239 0.205077 -1.035392
2009-04-24 07:46:16 51°12.179 2°48.405 -999 0.035725 0.202108 -1.070216
2009-04-24 07:46:21 51°12.176 2°48.401 -999 0.035416 0.200325 -1.070216
2009-04-24 07:46:26 51°12.172 2°48.397 -999 0.035622 0.201501 -1.070216
2009-04-24 07:46:31 51°12.169 2°48.393 -999 0.035622 0.201501 -1.070216
2009-04-24 07:46:35 51°12.166 2°48.391 -999 0.035828 0.202685 -1.035392
2009-04-24 07:46:41 51°12.162 2°48.387 -999 0.035519 0.200917 -1.070216
2009-04-24 07:46:46 51°12.159 2°48.384 -999 0.036342 0.205654 -1.035392
2009-04-24 07:46:51 51°12.155 2°48.381 -999 0.036651 0.207443 -1.070216
2009-04-24 07:46:55 51°12.152 2°48.379 -999 0.036445 0.206269 -1.070216
2009-04-24 07:47:01 51°12.147 2°48.377 -999 0.036445 0.206269 -1.070216
2009-04-24 07:47:06 51°12.143 2°48.375 -999 0.036239 0.205088 -1.070216
2009-04-24 07:47:11 51°12.139 2°48.374 -999 0.036239 0.205099 -1.035392
2009-04-24 07:47:15 51°12.136 2°48.373 -999 0.036239 0.20511 -1.070216
2009-04-24 07:47:21 51°12.131 2°48.372 -999 0.036136 0.204518 -1.035392
2009-04-24 07:47:26 51°12.128 2°48.371 -999 0.035004 0.198003 -1.070216
2009-04-24 07:47:31 51°12.124 2°48.371 -999 0.035004 0.198003 -1.070216
2009-04-24 07:47:35 51°12.121 2°48.372 -999 0.035107 0.198587 -1.070216
2009-04-24 07:47:41 51°12.117 2°48.372 -999 0.035519 0.200961 -1.035392
2009-04-24 07:47:46 51°12.114 2°48.373 -999 0.035416 0.200373 -1.070216
2009-04-24 07:47:51 51°12.11 2°48.374 -999 0.035004 0.198006 -1.070216
2009-04-24 07:47:56 51°12.107 2°48.376 -999 0.035725 0.202156 -1.070216
2009-04-24 07:48:01 51°12.105 2°48.378 -999 0.035725 0.202156 -1.070216
2009-04-24 07:48:06 51°12.102 2°48.38 -999 0.036136 0.204536 -1.035392
2009-04-24 07:48:11 51°12.1 2°48.382 -999 0.035313 0.199806 -1.070216
2009-04-24 07:48:16 51°12.098 2°48.385 -999 0.035004 0.198035 -1.070216
2009-04-24 07:48:21 51°12.096 2°48.388 -999 0.036033 0.203963 -1.070216
2009-04-24 07:48:26 51°12.095 2°48.391 -999 0.035107 0.198638 -1.035392
2009-04-24 07:48:31 51°12.094 2°48.395 -999 0.035107 0.198638 -1.035392
2009-04-24 07:48:36 51°12.093 2°48.398 -999 0.034593 0.195677 -1.070216
2009-04-24 07:48:41 51°12.092 2°48.401 -999 0.037474 0.212305 -1.070216
2009-04-24 07:48:46 51°12.092 2°48.405 -999 0.036342 0.205786 -1.070216
2009-04-24 07:48:51 51°12.092 2°48.408 -999 0.035931 0.203407 -1.070216
2009-04-24 07:48:56 51°12.092 2°48.41 -999 0.033872 0.191558 -1.035392
2009-04-24 07:49:01 51°12.093 2°48.412 -999 0.033872 0.191558 -1.035392
2009-04-24 07:49:06 51°12.093 2°48.414 -999 0.03449 0.195089 -1.070216
2009-04-24 07:49:11 51°12.093 2°48.416 -999 0.033461 0.189172 -1.070216
2009-04-24 07:49:16 51°12.093 2°48.417 -999 0.033461 0.189165 -1.035392
2009-04-24 07:49:20 51°12.094 2°48.418 -999 0.035107 0.19863 -1.070216
2009-04-24 07:49:26 51°12.094 2°48.42 -999 0.034284 0.193903 -1.035392
2009-04-24 07:49:31 51°12.095 2°48.421 -999 0.034284 0.193903 -1.035392
2009-04-24 07:49:36 51°12.095 2°48.422 -999 0.034799 0.196874 -1.070216
2009-04-24 07:49:40 51°12.096 2°48.422 -999 0.035622 0.201627 -1.070216
2009-04-24 07:49:46 51°12.096 2°48.423 -999 0.034696 0.196311 -1.035392
2009-04-24 07:49:51 51°12.097 2°48.423 -999 0.034078 0.192757 -1.070216
2009-04-24 07:49:56 51°12.097 2°48.423 -999 0.033152 0.187429 -1.070216
2009-04-24 07:50:00 51°12.098 2°48.423 -999 0.033152 0.187429 -1.070216
2009-04-24 07:50:06 51°12.098 2°48.423 -999 0.034593 0.195698 -1.035392
2009-04-24 07:50:11 51°12.099 2°48.423 -999 0.034387 0.194512 -1.035392
2009-04-24 07:50:16 51°12.099 2°48.423 -999 0.033049 0.186829 -1.070216
2009-04-24 07:50:21 51°12.1 2°48.423 -999 0.032946 0.186242 -1.070216
2009-04-24 07:50:26 51°12.101 2°48.423 -999 0.033049 0.186835 -1.035392
2009-04-24 07:50:31 51°12.101 2°48.422 -999 0.033049 0.186835 -1.035392
2009-04-24 07:50:36 51°12.102 2°48.422 -999 0.033255 0.188022 -1.035392
2009-04-24 07:50:41 51°12.102 2°48.421 -999 0.033255 0.188032 -1.070216
2009-04-24 07:50:46 51°12.103 2°48.421 -999 0.032638 0.184493 -1.070216
2009-04-24 07:50:51 51°12.103 2°48.42 -999 0.034902 0.197505 -1.070216
2009-04-24 07:50:56 51°12.104 2°48.419 -999 0.035828 0.202852 -1.035392
2009-04-24 07:51:01 51°12.104 2°48.418 -999 0.035828 0.202852 -1.035392
2009-04-24 07:51:06 51°12.105 2°48.417 -999 0.036239 0.20523 -1.070216
2009-04-24 07:51:11 51°12.105 2°48.417 -999 0.036548 0.207017 -1.070216
2009-04-24 07:51:16 51°12.105 2°48.416 -999 0.036651 0.207629 -1.070216
2009-04-24 07:51:21 51°12.106 2°48.415 -999 0.037268 0.211202 -1.070216
2009-04-24 07:51:26 51°12.106 2°48.414 -999 0.036857 0.208831 -1.035392
2009-04-24 07:51:31 51°12.106 2°48.413 -999 0.036857 0.208831 -1.035392
2009-04-24 07:51:36 51°12.107 2°48.411 -999 0.037268 0.21121 -1.035392
2009-04-24 07:51:40 51°12.107 2°48.411 -999 0.037268 0.21121 -1.070216
2009-04-24 07:51:46 51°12.107 2°48.409 -999 0.037474 0.212398 -1.035392
2009-04-24 07:51:51 51°12.107 2°48.408 -999 0.037474 0.212398 -1.035392
2009-04-24 07:51:55 51°12.108 2°48.407 -999 0.037268 0.21121 -1.070216
2009-04-24 07:52:01 51°12.108 2°48.406 -999 0.037268 0.21121 -1.070216
2009-04-24 07:52:06 51°12.108 2°48.405 -999 0.037268 0.21121 -1.070216
2009-04-24 07:52:11 51°12.108 2°48.403 -999 0.037371 0.211816 -1.070216
2009-04-24 07:52:16 51°12.108 2°48.402 -999 0.037268 0.211226 -1.035392
2009-04-24 07:52:21 51°12.108 2°48.401 -999 0.037371 0.211827 -1.070216
2009-04-24 07:52:26 51°12.108 2°48.4 -999 0.037783 0.214212 -1.070216
2009-04-24 07:52:31 51°12.109 2°48.398 -999 0.037783 0.214212 -1.070216
2009-04-24 07:52:36 51°12.108 2°48.397 -999 0.037474 0.212429 -1.070216
2009-04-24 07:52:41 51°12.108 2°48.396 -999 0.037474 0.212422 -1.070216
2009-04-24 07:52:46 51°12.108 2°48.395 -999 0.037371 0.211827 -1.070216
2009-04-24 07:52:51 51°12.109 2°48.393 -999 0.037371 0.211831 -1.070216
2009-04-24 07:52:56 51°12.109 2°48.392 -999 0.037577 0.21302 -1.070216
2009-04-24 07:53:01 51°12.109 2°48.39 -999 0.037577 0.21302 -1.070216
2009-04-24 07:53:06 51°12.109 2°48.39 -999 0.03768 0.21363 -1.070216
2009-04-24 07:53:11 51°12.11 2°48.389 -999 0.03768 0.213641 -1.070216
2009-04-24 07:53:16 51°12.111 2°48.389 -999 0.038092 0.216024 -1.070216
2009-04-24 07:53:21 51°12.111 2°48.389 -999 0.0384 0.217804 -1.070216
2009-04-24 07:53:26 51°12.113 2°48.39 -999 0.038195 0.216614 -1.070216
2009-04-24 07:53:31 51°12.114 2°48.39 -999 0.038195 0.216614 -1.070216
2009-04-24 07:53:36 51°12.116 2°48.392 -999 0.0384 0.217808 -1.035392
2009-04-24 07:53:40 51°12.117 2°48.393 -999 0.038297 0.217217 -1.035392
2009-04-24 07:53:46 51°12.119 2°48.396 -999 0.038297 0.217225 -1.070216
2009-04-24 07:53:51 51°12.12 2°48.399 -999 0.038606 0.219019 -1.070216
2009-04-24 07:53:55 51°12.122 2°48.402 -999 0.0384 0.217836 -1.070216
2009-04-24 07:54:00 51°12.123 2°48.405 -999 0.0384 0.217836 -1.070216
2009-04-24 07:54:06 51°12.125 2°48.411 -999 0.038503 0.218427 -1.070216
2009-04-24 07:54:11 51°12.127 2°48.415 -999 0.038709 0.219622 -1.070216
2009-04-24 07:54:16 51°12.129 2°48.42 -999 0.039018 0.221412 -1.070216
2009-04-24 07:54:21 51°12.13 2°48.425 -999 0.038915 0.220821 -1.070216
2009-04-24 07:54:26 51°12.131 2°48.431 -999 0.044163 0.251313 -1.035392
2009-04-24 07:54:31 51°12.132 2°48.437 -999 0.044163 0.251313 -1.035392
2009-04-24 07:54:35 51°12.134 2°48.443 -999 0.077918 0.451457 -1.035392
2009-04-24 07:54:40 51°12.135 2°48.45 -999 0.092017 0.536734 -1.035392
2009-04-24 07:54:46 51°12.137 2°48.459 -999 0.09953 0.582451 -1.070216
2009-04-24 07:54:51 51°12.139 2°48.468 -999 0.099016 0.579293 -1.070216
2009-04-24 07:54:55 51°12.14 2°48.474 -999 0.099633 0.583045 -1.070216
2009-04-24 07:55:01 51°12.142 2°48.485 -999 0.099633 0.583045 -1.070216
2009-04-24 07:55:06 51°12.144 2°48.494 -999 0.097163 0.56798 -1.035392
2009-04-24 07:55:11 51°12.147 2°48.503 -999 0.091812 0.535455 -1.035392
2009-04-24 07:55:16 51°12.15 2°48.512 -999 0.091091 0.531045 -1.035392
2009-04-24 07:55:21 51°12.152 2°48.521 -999 0.087901 0.511694 -1.070216
2009-04-24 07:55:26 51°12.155 2°48.531 -999 0.086563 0.503574 -1.070216
2009-04-24 07:55:31 51°12.157 2°48.541 -999 0.086563 0.503574 -1.070216
2009-04-24 07:55:36 51°12.159 2°48.551 -999 0.089033 0.518515 -1.070216
2009-04-24 07:55:41 51°12.162 2°48.561 -999 0.088312 0.514165 -1.070216
2009-04-24 07:55:46 51°12.164 2°48.571 -999 0.084505 0.491151 -1.070216
2009-04-24 07:55:51 51°12.166 2°48.58 -999 0.08574 0.498609 -1.035392
2009-04-24 07:55:56 51°12.168 2°48.588 -999 0.085225 0.495491 -1.070216
2009-04-24 07:56:01 51°12.17 2°48.596 -999 0.085225 0.495491 -1.070216
2009-04-24 07:56:06 51°12.171 2°48.603 -999 0.084505 0.491161 -1.070216
2009-04-24 07:56:11 51°12.172 2°48.61 -999 0.088107 0.512959 -1.070216
2009-04-24 07:56:15 51°12.172 2°48.614 -999 0.0914 0.532948 -1.070216
2009-04-24 07:56:21 51°12.173 2°48.618 -999 0.093767 0.547375 -1.070216
2009-04-24 07:56:26 51°12.173 2°48.622 -999 0.090268 0.526146 -1.070216
2009-04-24 07:56:31 51°12.174 2°48.625 -999 0.090268 0.526146 -1.070216
2009-04-24 07:56:36 51°12.174 2°48.628 -999 0.093664 0.546792 -1.035392
2009-04-24 07:56:41 51°12.174 2°48.63 -999 0.094487 0.551847 -1.070216
2009-04-24 07:56:46 51°12.174 2°48.633 -999 0.094179 0.549971 -1.070216
2009-04-24 07:56:51 51°12.174 2°48.635 -999 0.055277 0.316634 -1.035392
2009-04-24 07:56:55 51°12.174 2°48.637 -999 0.057439 0.329325 -1.070216
2009-04-24 07:57:00 51°12.174 2°48.639 -999 0.057439 0.329325 -1.070216
2009-04-24 07:57:06 51°12.175 2°48.641 -999 0.072772 0.420484 -1.070216
2009-04-24 07:57:11 51°12.175 2°48.643 -999 0.077815 0.450847 -1.070216
2009-04-24 07:57:16 51°12.175 2°48.644 -999 0.069068 0.398428 -1.035392
2009-04-24 07:57:21 51°12.175 2°48.646 -999 0.059703 0.342723 -1.070216
2009-04-24 07:57:26 51°12.175 2°48.647 -999 0.059497 0.341498 -1.070216
2009-04-24 07:57:31 51°12.175 2°48.648 -999 0.059497 0.341498 -1.070216
2009-04-24 07:57:36 51°12.176 2°48.649 -999 0.057541 0.329927 -1.070216
2009-04-24 07:57:41 51°12.176 2°48.65 -999 0.054351 0.311091 -1.035392
2009-04-24 07:57:46 51°12.176 2°48.651 -999 0.053631 0.306838 -1.070216
2009-04-24 07:57:51 51°12.176 2°48.652 -999 0.051779 0.295949 -1.070216
2009-04-24 07:57:56 51°12.177 2°48.653 -999 0.052911 0.302621 -1.070216
2009-04-24 07:58:01 51°12.177 2°48.653 -999 0.052911 0.302621 -1.070216
2009-04-24 07:58:06 51°12.177 2°48.654 -999 0.052911 0.302644 -1.070216
2009-04-24 07:58:11 51°12.177 2°48.654 -999 0.051881 0.296603 -1.070216
2009-04-24 07:58:16 51°12.177 2°48.655 -999 0.051676 0.295399 -1.035392
2009-04-24 07:58:21 51°12.178 2°48.655 -999 0.049 0.279687 -1.070216
2009-04-24 07:58:26 51°12.178 2°48.655 -999 0.050132 0.286325 -1.070216
2009-04-24 07:58:31 51°12.178 2°48.655 -999 0.050132 0.286325 -1.070216
2009-04-24 07:58:36 51°12.178 2°48.655 -999 0.048588 0.277265 -1.035392
2009-04-24 07:58:40 51°12.178 2°48.655 -999 0.048897 0.279074 -1.070216
2009-04-24 07:58:46 51°12.179 2°48.655 -999 0.048691 0.277868 -1.035392
2009-04-24 07:58:51 51°12.179 2°48.655 -999 0.047456 0.270644 -1.070216
2009-04-24 07:58:55 51°12.179 2°48.654 -999 0.048177 0.274865 -1.070216
2009-04-24 07:59:01 51°12.179 2°48.654 -999 0.048177 0.274865 -1.070216
2009-04-24 07:59:06 51°12.179 2°48.653 -999 0.047251 0.269451 -1.070216
2009-04-24 07:59:11 51°12.179 2°48.653 -999 0.047251 0.269461 -1.070216
2009-04-24 07:59:16 51°12.18 2°48.652 -999 0.047559 0.271277 -1.070216
2009-04-24 07:59:20 51°12.18 2°48.651 -999 0.045707 0.260444 -1.070216
2009-04-24 07:59:26 51°12.18 2°48.651 -999 0.045192 0.257441 -1.070216
2009-04-24 07:59:31 51°12.18 2°48.65 -999 0.045192 0.257441 -1.070216
2009-04-24 07:59:36 51°12.18 2°48.649 -999 0.046016 0.262257 -1.035392
2009-04-24 07:59:41 51°12.18 2°48.648 -999 0.045089 0.25685 -1.035392
2009-04-24 07:59:46 51°12.18 2°48.647 -999 0.046427 0.264677 -1.070216
2009-04-24 07:59:51 51°12.18 2°48.646 -999 0.045501 0.259267 -1.070216
2009-04-24 07:59:56 51°12.18 2°48.645 -999 0.045295 0.25807 -1.070216
2009-04-24 08:00:01 51°12.181 2°48.644 -999 0.045295 0.25807 -1.070216
2009-04-24 08:00:06 51°12.181 2°48.643 -999 0.044678 0.254477 -1.070216
2009-04-24 08:00:11 51°12.181 2°48.642 -999 0.04581 0.261094 -1.070216
2009-04-24 08:00:16 51°12.181 2°48.641 -999 0.044575 0.253891 -1.035392
2009-04-24 08:00:21 51°12.181 2°48.64 -999 0.045295 0.258099 -1.035392
2009-04-24 08:00:26 51°12.181 2°48.639 -999 0.044369 0.2527 -1.035392
2009-04-24 08:00:31 51°12.181 2°48.637 -999 0.044369 0.2527 -1.035392
2009-04-24 08:00:36 51°12.181 2°48.636 -999 0.044678 0.25451 -1.070216
2009-04-24 08:00:41 51°12.181 2°48.635 -999 0.047148 0.268949 -1.035392
2009-04-24 08:00:46 51°12.181 2°48.634 -999 0.047045 0.268367 -1.035392
2009-04-24 08:00:51 51°12.181 2°48.633 -999 0.046942 0.267775 -1.035392
2009-04-24 08:00:55 51°12.181 2°48.632 -999 0.045192 0.257556 -1.035392
2009-04-24 08:01:01 51°12.181 2°48.63 -999 0.045192 0.257556 -1.035392
2009-04-24 08:01:06 51°12.181 2°48.629 -999 0.044678 0.254553 -1.070216
2009-04-24 08:01:11 51°12.181 2°48.627 -999 0.044575 0.253957 -1.035392
2009-04-24 08:01:15 51°12.181 2°48.626 -999 0.044987 0.256364 -1.035392
2009-04-24 08:01:21 51°12.18 2°48.624 -999 0.044678 0.254567 -1.035392
2009-04-24 08:01:26 51°12.18 2°48.623 -999 0.044884 0.255773 -1.070216
2009-04-24 08:01:31 51°12.18 2°48.621 -999 0.044884 0.255773 -1.070216
2009-04-24 08:01:36 51°12.18 2°48.62 -999 0.044163 0.25157 -1.070216
2009-04-24 08:01:41 51°12.18 2°48.618 -999 0.044987 0.256383 -1.035392
2009-04-24 08:01:46 51°12.18 2°48.616 -999 0.044884 0.255792 -1.035392
2009-04-24 08:01:51 51°12.18 2°48.615 -999 0.043957 0.250389 -1.035392
2009-04-24 08:01:56 51°12.18 2°48.613 -999 0.04406 0.250993 -1.070216
2009-04-24 08:02:00 51°12.18 2°48.612 -999 0.04406 0.250993 -1.070216
2009-04-24 08:02:06 51°12.18 2°48.609 -999 0.043855 0.249798 -1.035392
2009-04-24 08:02:11 51°12.179 2°48.608 -999 0.043237 0.246199 -1.035392
2009-04-24 08:02:16 51°12.179 2°48.606 -999 0.042825 0.243802 -1.070216
2009-04-24 08:02:21 51°12.179 2°48.604 -999 0.042928 0.244406 -1.070216
2009-04-24 08:02:26 51°12.179 2°48.603 -999 0.036548 0.207344 -1.070216
2009-04-24 08:02:31 51°12.179 2°48.601 -999 0.036548 0.207344 -1.070216
2009-04-24 08:02:36 51°12.179 2°48.599 -999 0.0384 0.218041 -1.035392
2009-04-24 08:02:40 51°12.178 2°48.597 -999 0.0384 0.218061 -1.035392
2009-04-24 08:02:46 51°12.178 2°48.595 -999 0.037577 0.213306 -1.070216
2009-04-24 08:02:51 51°12.178 2°48.593 -999 0.037577 0.213302 -1.035392
2009-04-24 08:02:55 51°12.178 2°48.591 -999 0.038195 0.216886 -1.035392
2009-04-24 08:03:01 51°12.178 2°48.589 -999 0.038195 0.216886 -1.035392
2009-04-24 08:03:06 51°12.177 2°48.587 -999 0.036857 0.20915 -1.035392
2009-04-24 08:03:11 51°12.177 2°48.585 -999 0.03696 0.209752 -1.035392
2009-04-24 08:03:16 51°12.177 2°48.583 -999 0.03768 0.213924 -1.035392
2009-04-24 08:03:20 51°12.177 2°48.581 -999 0.03696 0.209771 -1.070216
2009-04-24 08:03:26 51°12.177 2°48.579 -999 0.037371 0.212162 -1.035392
2009-04-24 08:03:31 51°12.176 2°48.576 -999 0.037371 0.212162 -1.035392
2009-04-24 08:03:36 51°12.176 2°48.574 -999 0.0384 0.218125 -1.070216
2009-04-24 08:03:41 51°12.176 2°48.572 -999 0.037371 0.21219 -1.035392
2009-04-24 08:03:46 51°12.176 2°48.57 -999 0.039018 0.221723 -1.070216
2009-04-24 08:03:51 51°12.176 2°48.568 -999 0.037165 0.210999 -1.035392
2009-04-24 08:03:56 51°12.175 2°48.566 -999 0.037577 0.213372 -1.070216
2009-04-24 08:04:00 51°12.175 2°48.564 -999 0.037577 0.213372 -1.070216
2009-04-24 08:04:06 51°12.175 2°48.561 -999 0.040664 0.231277 -1.070216
2009-04-24 08:04:11 51°12.175 2°48.559 -999 0.039121 0.222323 -1.070216
2009-04-24 08:04:16 51°12.175 2°48.557 -999 0.041899 0.238465 -1.035392
2009-04-24 08:04:20 51°12.175 2°48.555 -999 0.042311 0.240878 -1.070216
2009-04-24 08:04:26 51°12.174 2°48.552 -999 0.043134 0.245682 -1.070216
2009-04-24 08:04:31 51°12.174 2°48.55 -999 0.043134 0.245682 -1.070216
2009-04-24 08:04:36 51°12.174 2°48.548 -999 0.042928 0.244483 -1.035392
2009-04-24 08:04:41 51°12.173 2°48.546 -999 0.043752 0.249309 -1.035392
2009-04-24 08:04:46 51°12.173 2°48.543 -999 0.045501 0.259528 -1.070216
2009-04-24 08:04:51 51°12.173 2°48.541 -999 0.04406 0.251129 -1.070216
2009-04-24 08:04:56 51°12.172 2°48.539 -999 0.04406 0.251124 -1.035392
2009-04-24 08:05:00 51°12.172 2°48.537 -999 0.04406 0.251124 -1.035392
2009-04-24 08:05:06 51°12.172 2°48.534 -999 0.04653 0.265571 -1.070216
2009-04-24 08:05:11 51°12.172 2°48.532 -999 0.041693 0.237338 -1.035392
2009-04-24 08:05:16 51°12.172 2°48.53 -999 0.041796 0.237928 -1.070216
2009-04-24 08:05:21 51°12.171 2°48.527 -999 0.044884 0.25593 -1.070216
2009-04-24 08:05:26 51°12.171 2°48.525 -999 0.042208 0.240323 -1.070216
2009-04-24 08:05:31 51°12.171 2°48.523 -999 0.042208 0.240323 -1.070216
2009-04-24 08:05:36 51°12.171 2°48.521 -999 0.043237 0.246314 -1.070216
2009-04-24 08:05:40 51°12.17 2°48.519 -999 0.045501 0.259523 -1.070216
2009-04-24 08:05:46 51°12.17 2°48.516 -999 0.04581 0.261338 -1.035392
2009-04-24 08:05:51 51°12.17 2°48.514 -999 0.045501 0.259533 -1.035392
2009-04-24 08:05:55 51°12.169 2°48.512 -999 0.045707 0.260741 -1.070216
2009-04-24 08:06:00 51°12.169 2°48.51 -999 0.045707 0.260741 -1.070216
2009-04-24 08:06:06 51°12.169 2°48.507 -999 0.045089 0.257133 -1.035392
2009-04-24 08:06:11 51°12.169 2°48.505 -999 0.04406 0.25112 -1.070216
2009-04-24 08:06:16 51°12.168 2°48.503 -999 0.045295 0.258321 -1.035392
2009-04-24 08:06:21 51°12.168 2°48.501 -999 0.042517 0.242099 -1.070216
2009-04-24 08:06:26 51°12.168 2°48.498 -999 0.042414 0.241486 -1.070216
2009-04-24 08:06:31 51°12.167 2°48.496 -999 0.042414 0.241486 -1.070216
2009-04-24 08:06:36 51°12.167 2°48.494 -999 0.04406 0.251087 -1.070216
2009-04-24 08:06:40 51°12.167 2°48.492 -999 0.045295 0.258316 -1.070216
2009-04-24 08:06:46 51°12.166 2°48.49 -999 0.040767 0.231935 -1.035392
2009-04-24 08:06:51 51°12.166 2°48.488 -999 0.045501 0.259538 -1.035392
2009-04-24 08:06:55 51°12.166 2°48.488 -999 0.042414 0.241522 -1.035392
2009-04-24 08:07:01 51°12.167 2°48.488 -999 0.042414 0.241522 -1.035392
2009-04-24 08:07:06 51°12.167 2°48.488 -999 0.042414 0.241522 -1.070216
2009-04-24 08:07:11 51°12.168 2°48.489 -999 0.042002 0.239125 -1.035392
2009-04-24 08:07:16 51°12.168 2°48.491 -999 0.04334 0.24695 -1.035392
2009-04-24 08:07:21 51°12.169 2°48.494 -999 0.04406 0.251166 -1.070216
2009-04-24 08:07:26 51°12.171 2°48.497 -999 0.042825 0.243978 -1.070216